<?xml version="1.0" encoding="UTF-8" standalone="no" ?>
<gpx xmlns="http://www.topografix.com/GPX/1/1" xmlns:xsi="http://www.w3.org/2001/XMLSchema-instance" xsi:schemaLocation="http://www.topografix.com/GPX/1/1 http://www.topografix.com/GPX/1/1/gpx.xsd" version="1.1" creator="VisuGPX - https://www.visugpx.com">
  <metadata>
    <name>Capcir - Col de Creu-proche Sansa-Col de Sansa</name>
    <desc><![CDATA[File with points/tracks from Locus Map/4.15.2]]></desc>
  </metadata>
  <trk>
    <name><![CDATA[2023-04-28 11:32]]></name>
    <extensions>
      <line xmlns="http://www.topografix.com/GPX/gpx_style/0/2">
        <color>0000FF</color>
        <opacity>0.59</opacity>
        <width>6.0</width>
      </line>
    </extensions>
    <trkseg>
      <trkpt lat="42.6025" lon="2.13814">
        <ele>1697.06</ele>
        <time>2023-04-28T09:32:35.014Z</time>
      </trkpt>
      <trkpt lat="42.60249" lon="2.13814">
        <ele>1695.18</ele>
        <time>2023-04-28T09:33:08.031Z</time>
      </trkpt>
      <trkpt lat="42.6025" lon="2.13813">
        <ele>1698.62</ele>
        <time>2023-04-28T09:36:25.027Z</time>
      </trkpt>
      <trkpt lat="42.60251" lon="2.1381">
        <ele>1701.98</ele>
        <time>2023-04-28T09:36:35.027Z</time>
      </trkpt>
      <trkpt lat="42.60251" lon="2.13809">
        <ele>1704.74</ele>
        <time>2023-04-28T09:38:50.032Z</time>
      </trkpt>
      <trkpt lat="42.60251" lon="2.13805">
        <ele>1709.04</ele>
        <time>2023-04-28T09:39:00.033Z</time>
      </trkpt>
      <trkpt lat="42.60251" lon="2.13806">
        <ele>1708.07</ele>
        <time>2023-04-28T09:40:34.033Z</time>
      </trkpt>
      <trkpt lat="42.60252" lon="2.13805">
        <ele>1703.37</ele>
        <time>2023-04-28T09:40:45.025Z</time>
      </trkpt>
      <trkpt lat="42.60252" lon="2.13804">
        <ele>1702.12</ele>
        <time>2023-04-28T09:42:36.025Z</time>
      </trkpt>
      <trkpt lat="42.60251" lon="2.13803">
        <ele>1703.75</ele>
        <time>2023-04-28T09:44:06.030Z</time>
      </trkpt>
      <trkpt lat="42.60252" lon="2.13804">
        <ele>1703.06</ele>
        <time>2023-04-28T09:44:23.023Z</time>
      </trkpt>
      <trkpt lat="42.60255" lon="2.13804">
        <ele>1703.31</ele>
        <time>2023-04-28T09:44:33.034Z</time>
      </trkpt>
      <trkpt lat="42.60253" lon="2.13804">
        <ele>1702.06</ele>
        <time>2023-04-28T09:44:45.028Z</time>
      </trkpt>
      <trkpt lat="42.60255" lon="2.13804">
        <ele>1702.06</ele>
        <time>2023-04-28T09:44:55.029Z</time>
      </trkpt>
      <trkpt lat="42.60265" lon="2.13803">
        <ele>1704.07</ele>
        <time>2023-04-28T09:45:06.031Z</time>
      </trkpt>
      <trkpt lat="42.60275" lon="2.13803">
        <ele>1705.06</ele>
        <time>2023-04-28T09:45:16.921Z</time>
      </trkpt>
      <trkpt lat="42.60279" lon="2.13805">
        <ele>1707.06</ele>
        <time>2023-04-28T09:45:27.232Z</time>
      </trkpt>
      <trkpt lat="42.60281" lon="2.13807">
        <ele>1707.06</ele>
        <time>2023-04-28T09:45:37.652Z</time>
      </trkpt>
      <trkpt lat="42.60282" lon="2.13809">
        <ele>1708.06</ele>
        <time>2023-04-28T09:45:48.662Z</time>
      </trkpt>
      <trkpt lat="42.60282" lon="2.13811">
        <ele>1707.06</ele>
        <time>2023-04-28T09:45:59.622Z</time>
      </trkpt>
      <trkpt lat="42.6028" lon="2.13813">
        <ele>1705.06</ele>
        <time>2023-04-28T09:46:09.982Z</time>
      </trkpt>
      <trkpt lat="42.60277" lon="2.13823">
        <ele>1706.79</ele>
        <time>2023-04-28T09:46:20.381Z</time>
      </trkpt>
      <trkpt lat="42.60277" lon="2.13838">
        <ele>1706.06</ele>
        <time>2023-04-28T09:46:30.831Z</time>
      </trkpt>
      <trkpt lat="42.60277" lon="2.13855">
        <ele>1708.04</ele>
        <time>2023-04-28T09:46:41.340Z</time>
      </trkpt>
      <trkpt lat="42.60274" lon="2.1387">
        <ele>1710.06</ele>
        <time>2023-04-28T09:46:51.752Z</time>
      </trkpt>
      <trkpt lat="42.60272" lon="2.13879">
        <ele>1709.12</ele>
        <time>2023-04-28T09:47:02.160Z</time>
      </trkpt>
      <trkpt lat="42.6027" lon="2.13892">
        <ele>1711.06</ele>
        <time>2023-04-28T09:47:12.632Z</time>
      </trkpt>
      <trkpt lat="42.60269" lon="2.13909">
        <ele>1712.06</ele>
        <time>2023-04-28T09:47:23.051Z</time>
      </trkpt>
      <trkpt lat="42.60267" lon="2.13924">
        <ele>1712.06</ele>
        <time>2023-04-28T09:47:33.512Z</time>
      </trkpt>
      <trkpt lat="42.60267" lon="2.13937">
        <ele>1709.08</ele>
        <time>2023-04-28T09:47:43.842Z</time>
      </trkpt>
      <trkpt lat="42.60269" lon="2.13942">
        <ele>1708.06</ele>
        <time>2023-04-28T09:47:54.342Z</time>
      </trkpt>
      <trkpt lat="42.60271" lon="2.13949">
        <ele>1709.06</ele>
        <time>2023-04-28T09:48:04.692Z</time>
      </trkpt>
      <trkpt lat="42.60272" lon="2.13969">
        <ele>1706.33</ele>
        <time>2023-04-28T09:48:15.080Z</time>
      </trkpt>
      <trkpt lat="42.60275" lon="2.13982">
        <ele>1705.31</ele>
        <time>2023-04-28T09:48:25.081Z</time>
      </trkpt>
      <trkpt lat="42.60271" lon="2.13999">
        <ele>1704.06</ele>
        <time>2023-04-28T09:48:35.432Z</time>
      </trkpt>
      <trkpt lat="42.6027" lon="2.14015">
        <ele>1703.06</ele>
        <time>2023-04-28T09:48:45.781Z</time>
      </trkpt>
      <trkpt lat="42.60269" lon="2.14032">
        <ele>1698.06</ele>
        <time>2023-04-28T09:48:56.302Z</time>
      </trkpt>
      <trkpt lat="42.60268" lon="2.14048">
        <ele>1699.06</ele>
        <time>2023-04-28T09:49:06.651Z</time>
      </trkpt>
      <trkpt lat="42.60268" lon="2.14063">
        <ele>1700.06</ele>
        <time>2023-04-28T09:49:17.182Z</time>
      </trkpt>
      <trkpt lat="42.6027" lon="2.14079">
        <ele>1701.13</ele>
        <time>2023-04-28T09:49:27.591Z</time>
      </trkpt>
      <trkpt lat="42.6027" lon="2.14089">
        <ele>1704.8</ele>
        <time>2023-04-28T09:49:38.041Z</time>
      </trkpt>
      <trkpt lat="42.60274" lon="2.14107">
        <ele>1709.06</ele>
        <time>2023-04-28T09:49:48.442Z</time>
      </trkpt>
      <trkpt lat="42.60277" lon="2.14119">
        <ele>1707.07</ele>
        <time>2023-04-28T09:49:58.872Z</time>
      </trkpt>
      <trkpt lat="42.6028" lon="2.14133">
        <ele>1706.07</ele>
        <time>2023-04-28T09:50:09.202Z</time>
      </trkpt>
      <trkpt lat="42.6028" lon="2.14144">
        <ele>1704.13</ele>
        <time>2023-04-28T09:50:19.571Z</time>
      </trkpt>
      <trkpt lat="42.60279" lon="2.14152">
        <ele>1705.07</ele>
        <time>2023-04-28T09:50:30.051Z</time>
      </trkpt>
      <trkpt lat="42.6028" lon="2.14165">
        <ele>1707.07</ele>
        <time>2023-04-28T09:50:40.521Z</time>
      </trkpt>
      <trkpt lat="42.60279" lon="2.14175">
        <ele>1706.07</ele>
        <time>2023-04-28T09:50:50.922Z</time>
      </trkpt>
      <trkpt lat="42.60276" lon="2.14188">
        <ele>1700.09</ele>
        <time>2023-04-28T09:51:01.951Z</time>
      </trkpt>
      <trkpt lat="42.60272" lon="2.14201">
        <ele>1697.07</ele>
        <time>2023-04-28T09:51:12.272Z</time>
      </trkpt>
      <trkpt lat="42.60273" lon="2.14205">
        <ele>1695.33</ele>
        <time>2023-04-28T09:51:22.782Z</time>
      </trkpt>
      <trkpt lat="42.60274" lon="2.14209">
        <ele>1693.07</ele>
        <time>2023-04-28T09:51:32.852Z</time>
      </trkpt>
      <trkpt lat="42.60275" lon="2.1421">
        <ele>1690.07</ele>
        <time>2023-04-28T09:51:51.962Z</time>
      </trkpt>
      <trkpt lat="42.60274" lon="2.14215">
        <ele>1690.07</ele>
        <time>2023-04-28T09:52:02.992Z</time>
      </trkpt>
      <trkpt lat="42.60274" lon="2.14214">
        <ele>1691.07</ele>
        <time>2023-04-28T09:57:52.560Z</time>
      </trkpt>
      <trkpt lat="42.60273" lon="2.14212">
        <ele>1692.07</ele>
        <time>2023-04-28T09:58:02.582Z</time>
      </trkpt>
      <trkpt lat="42.60273" lon="2.14211">
        <ele>1694.05</ele>
        <time>2023-04-28T09:58:26.911Z</time>
      </trkpt>
      <trkpt lat="42.60274" lon="2.14212">
        <ele>1692.01</ele>
        <time>2023-04-28T09:58:37.311Z</time>
      </trkpt>
      <trkpt lat="42.6028" lon="2.14226">
        <ele>1692.07</ele>
        <time>2023-04-28T09:58:47.772Z</time>
      </trkpt>
      <trkpt lat="42.60284" lon="2.14242">
        <ele>1691.07</ele>
        <time>2023-04-28T09:58:58.160Z</time>
      </trkpt>
      <trkpt lat="42.60291" lon="2.14258">
        <ele>1689.08</ele>
        <time>2023-04-28T09:59:08.512Z</time>
      </trkpt>
      <trkpt lat="42.60298" lon="2.14274">
        <ele>1688.07</ele>
        <time>2023-04-28T09:59:18.961Z</time>
      </trkpt>
      <trkpt lat="42.60302" lon="2.14291">
        <ele>1689.07</ele>
        <time>2023-04-28T09:59:29.472Z</time>
      </trkpt>
      <trkpt lat="42.60306" lon="2.14308">
        <ele>1688.01</ele>
        <time>2023-04-28T09:59:39.691Z</time>
      </trkpt>
      <trkpt lat="42.60312" lon="2.14323">
        <ele>1688.32</ele>
        <time>2023-04-28T09:59:50.262Z</time>
      </trkpt>
      <trkpt lat="42.60317" lon="2.14338">
        <ele>1687.32</ele>
        <time>2023-04-28T10:00:00.642Z</time>
      </trkpt>
      <trkpt lat="42.60321" lon="2.14353">
        <ele>1688.07</ele>
        <time>2023-04-28T10:00:11.101Z</time>
      </trkpt>
      <trkpt lat="42.60328" lon="2.14368">
        <ele>1685.08</ele>
        <time>2023-04-28T10:00:21.442Z</time>
      </trkpt>
      <trkpt lat="42.60336" lon="2.14382">
        <ele>1688.07</ele>
        <time>2023-04-28T10:00:31.882Z</time>
      </trkpt>
      <trkpt lat="42.60345" lon="2.14391">
        <ele>1689.07</ele>
        <time>2023-04-28T10:00:42.352Z</time>
      </trkpt>
      <trkpt lat="42.60352" lon="2.144">
        <ele>1690.07</ele>
        <time>2023-04-28T10:00:52.802Z</time>
      </trkpt>
      <trkpt lat="42.60361" lon="2.14405">
        <ele>1690.84</ele>
        <time>2023-04-28T10:01:03.342Z</time>
      </trkpt>
      <trkpt lat="42.6037" lon="2.14412">
        <ele>1694.01</ele>
        <time>2023-04-28T10:01:13.711Z</time>
      </trkpt>
      <trkpt lat="42.60376" lon="2.14417">
        <ele>1697.07</ele>
        <time>2023-04-28T10:01:24.122Z</time>
      </trkpt>
      <trkpt lat="42.60384" lon="2.14424">
        <ele>1697.07</ele>
        <time>2023-04-28T10:01:35.015Z</time>
      </trkpt>
      <trkpt lat="42.60391" lon="2.14431">
        <ele>1701.01</ele>
        <time>2023-04-28T10:01:45.401Z</time>
      </trkpt>
      <trkpt lat="42.60398" lon="2.14441">
        <ele>1706.01</ele>
        <time>2023-04-28T10:01:55.882Z</time>
      </trkpt>
      <trkpt lat="42.60404" lon="2.14448">
        <ele>1706.08</ele>
        <time>2023-04-28T10:02:06.791Z</time>
      </trkpt>
      <trkpt lat="42.60412" lon="2.14456">
        <ele>1705.08</ele>
        <time>2023-04-28T10:02:17.262Z</time>
      </trkpt>
      <trkpt lat="42.60418" lon="2.14465">
        <ele>1708.01</ele>
        <time>2023-04-28T10:02:27.592Z</time>
      </trkpt>
      <trkpt lat="42.60421" lon="2.14477">
        <ele>1707.08</ele>
        <time>2023-04-28T10:02:38.012Z</time>
      </trkpt>
      <trkpt lat="42.60429" lon="2.14484">
        <ele>1707.06</ele>
        <time>2023-04-28T10:02:48.212Z</time>
      </trkpt>
      <trkpt lat="42.60438" lon="2.14492">
        <ele>1708.08</ele>
        <time>2023-04-28T10:02:58.562Z</time>
      </trkpt>
      <trkpt lat="42.60446" lon="2.145">
        <ele>1709.33</ele>
        <time>2023-04-28T10:03:09.010Z</time>
      </trkpt>
      <trkpt lat="42.60455" lon="2.14507">
        <ele>1712.01</ele>
        <time>2023-04-28T10:03:19.951Z</time>
      </trkpt>
      <trkpt lat="42.60463" lon="2.14514">
        <ele>1714.06</ele>
        <time>2023-04-28T10:03:30.442Z</time>
      </trkpt>
      <trkpt lat="42.60469" lon="2.14525">
        <ele>1718.08</ele>
        <time>2023-04-28T10:03:40.981Z</time>
      </trkpt>
      <trkpt lat="42.60472" lon="2.14527">
        <ele>1718.08</ele>
        <time>2023-04-28T10:03:51.352Z</time>
      </trkpt>
      <trkpt lat="42.60477" lon="2.14539">
        <ele>1719.08</ele>
        <time>2023-04-28T10:04:01.701Z</time>
      </trkpt>
      <trkpt lat="42.60483" lon="2.14552">
        <ele>1718.08</ele>
        <time>2023-04-28T10:04:12.081Z</time>
      </trkpt>
      <trkpt lat="42.6049" lon="2.14564">
        <ele>1719.08</ele>
        <time>2023-04-28T10:04:22.482Z</time>
      </trkpt>
      <trkpt lat="42.60497" lon="2.14577">
        <ele>1720.77</ele>
        <time>2023-04-28T10:04:32.871Z</time>
      </trkpt>
      <trkpt lat="42.60503" lon="2.14592">
        <ele>1722.06</ele>
        <time>2023-04-28T10:04:43.260Z</time>
      </trkpt>
      <trkpt lat="42.6051" lon="2.14606">
        <ele>1721.14</ele>
        <time>2023-04-28T10:04:53.702Z</time>
      </trkpt>
      <trkpt lat="42.60518" lon="2.14615">
        <ele>1719.83</ele>
        <time>2023-04-28T10:05:04.031Z</time>
      </trkpt>
      <trkpt lat="42.60525" lon="2.14631">
        <ele>1721.08</ele>
        <time>2023-04-28T10:05:14.461Z</time>
      </trkpt>
      <trkpt lat="42.60534" lon="2.14641">
        <ele>1719.14</ele>
        <time>2023-04-28T10:05:24.461Z</time>
      </trkpt>
      <trkpt lat="42.60541" lon="2.14654">
        <ele>1721.13</ele>
        <time>2023-04-28T10:05:34.812Z</time>
      </trkpt>
      <trkpt lat="42.60547" lon="2.14664">
        <ele>1724.02</ele>
        <time>2023-04-28T10:05:45.241Z</time>
      </trkpt>
      <trkpt lat="42.60554" lon="2.14675">
        <ele>1726.07</ele>
        <time>2023-04-28T10:05:55.682Z</time>
      </trkpt>
      <trkpt lat="42.6056" lon="2.14687">
        <ele>1726.15</ele>
        <time>2023-04-28T10:06:06.051Z</time>
      </trkpt>
      <trkpt lat="42.60561" lon="2.14703">
        <ele>1726.08</ele>
        <time>2023-04-28T10:06:16.412Z</time>
      </trkpt>
      <trkpt lat="42.60562" lon="2.14722">
        <ele>1725.77</ele>
        <time>2023-04-28T10:06:26.781Z</time>
      </trkpt>
      <trkpt lat="42.60561" lon="2.14736">
        <ele>1725.08</ele>
        <time>2023-04-28T10:06:37.080Z</time>
      </trkpt>
      <trkpt lat="42.60556" lon="2.14749">
        <ele>1727.07</ele>
        <time>2023-04-28T10:06:47.541Z</time>
      </trkpt>
      <trkpt lat="42.60552" lon="2.14763">
        <ele>1728.08</ele>
        <time>2023-04-28T10:06:57.952Z</time>
      </trkpt>
      <trkpt lat="42.60546" lon="2.14778">
        <ele>1728.07</ele>
        <time>2023-04-28T10:07:08.522Z</time>
      </trkpt>
      <trkpt lat="42.60544" lon="2.14791">
        <ele>1728.09</ele>
        <time>2023-04-28T10:07:18.831Z</time>
      </trkpt>
      <trkpt lat="42.60542" lon="2.14807">
        <ele>1729.02</ele>
        <time>2023-04-28T10:07:29.761Z</time>
      </trkpt>
      <trkpt lat="42.60543" lon="2.14817">
        <ele>1725.15</ele>
        <time>2023-04-28T10:07:40.292Z</time>
      </trkpt>
      <trkpt lat="42.60541" lon="2.14833">
        <ele>1726.84</ele>
        <time>2023-04-28T10:07:50.742Z</time>
      </trkpt>
      <trkpt lat="42.6054" lon="2.14848">
        <ele>1729.08</ele>
        <time>2023-04-28T10:08:01.040Z</time>
      </trkpt>
      <trkpt lat="42.60541" lon="2.14865">
        <ele>1729.09</ele>
        <time>2023-04-28T10:08:11.512Z</time>
      </trkpt>
      <trkpt lat="42.60542" lon="2.14877">
        <ele>1726.34</ele>
        <time>2023-04-28T10:08:21.982Z</time>
      </trkpt>
      <trkpt lat="42.60542" lon="2.14895">
        <ele>1725.09</ele>
        <time>2023-04-28T10:08:32.393Z</time>
      </trkpt>
      <trkpt lat="42.60538" lon="2.1491">
        <ele>1725.09</ele>
        <time>2023-04-28T10:08:42.842Z</time>
      </trkpt>
      <trkpt lat="42.60536" lon="2.14911">
        <ele>1726.09</ele>
        <time>2023-04-28T10:08:53.272Z</time>
      </trkpt>
      <trkpt lat="42.60535" lon="2.14925">
        <ele>1727.09</ele>
        <time>2023-04-28T10:09:03.412Z</time>
      </trkpt>
      <trkpt lat="42.60536" lon="2.14926">
        <ele>1722.59</ele>
        <time>2023-04-28T10:10:05.028Z</time>
      </trkpt>
      <trkpt lat="42.60537" lon="2.14926">
        <ele>1721.09</ele>
        <time>2023-04-28T10:10:33.041Z</time>
      </trkpt>
      <trkpt lat="42.60537" lon="2.14925">
        <ele>1720.34</ele>
        <time>2023-04-28T10:10:43.561Z</time>
      </trkpt>
      <trkpt lat="42.60534" lon="2.1493">
        <ele>1720.03</ele>
        <time>2023-04-28T10:10:53.981Z</time>
      </trkpt>
      <trkpt lat="42.60527" lon="2.14944">
        <ele>1721.09</ele>
        <time>2023-04-28T10:11:04.423Z</time>
      </trkpt>
      <trkpt lat="42.6052" lon="2.14958">
        <ele>1723.09</ele>
        <time>2023-04-28T10:11:14.781Z</time>
      </trkpt>
      <trkpt lat="42.60511" lon="2.14973">
        <ele>1726.07</ele>
        <time>2023-04-28T10:11:25.171Z</time>
      </trkpt>
      <trkpt lat="42.60505" lon="2.14987">
        <ele>1727.08</ele>
        <time>2023-04-28T10:11:35.562Z</time>
      </trkpt>
      <trkpt lat="42.60496" lon="2.14993">
        <ele>1729.08</ele>
        <time>2023-04-28T10:11:45.931Z</time>
      </trkpt>
      <trkpt lat="42.6049" lon="2.14998">
        <ele>1728.33</ele>
        <time>2023-04-28T10:11:56.892Z</time>
      </trkpt>
      <trkpt lat="42.60491" lon="2.15">
        <ele>1727.09</ele>
        <time>2023-04-28T10:12:07.760Z</time>
      </trkpt>
      <trkpt lat="42.60491" lon="2.15001">
        <ele>1725.17</ele>
        <time>2023-04-28T10:12:45.582Z</time>
      </trkpt>
      <trkpt lat="42.60492" lon="2.15003">
        <ele>1725.09</ele>
        <time>2023-04-28T10:12:56.661Z</time>
      </trkpt>
      <trkpt lat="42.6049" lon="2.15007">
        <ele>1726.34</ele>
        <time>2023-04-28T10:13:07.081Z</time>
      </trkpt>
      <trkpt lat="42.60478" lon="2.15017">
        <ele>1727.09</ele>
        <time>2023-04-28T10:13:17.432Z</time>
      </trkpt>
      <trkpt lat="42.60469" lon="2.15026">
        <ele>1727.09</ele>
        <time>2023-04-28T10:13:27.782Z</time>
      </trkpt>
      <trkpt lat="42.60456" lon="2.15034">
        <ele>1728.09</ele>
        <time>2023-04-28T10:13:38.302Z</time>
      </trkpt>
      <trkpt lat="42.60444" lon="2.1504">
        <ele>1728.15</ele>
        <time>2023-04-28T10:13:48.691Z</time>
      </trkpt>
      <trkpt lat="42.60431" lon="2.15049">
        <ele>1729.07</ele>
        <time>2023-04-28T10:13:59.152Z</time>
      </trkpt>
      <trkpt lat="42.60419" lon="2.15053">
        <ele>1727.03</ele>
        <time>2023-04-28T10:14:09.524Z</time>
      </trkpt>
      <trkpt lat="42.60406" lon="2.15057">
        <ele>1726.09</ele>
        <time>2023-04-28T10:14:20.011Z</time>
      </trkpt>
      <trkpt lat="42.60398" lon="2.15069">
        <ele>1723.09</ele>
        <time>2023-04-28T10:14:30.332Z</time>
      </trkpt>
      <trkpt lat="42.60397" lon="2.15071">
        <ele>1723.09</ele>
        <time>2023-04-28T10:14:40.632Z</time>
      </trkpt>
      <trkpt lat="42.60398" lon="2.15069">
        <ele>1719.1</ele>
        <time>2023-04-28T10:14:51.121Z</time>
      </trkpt>
      <trkpt lat="42.60398" lon="2.1507">
        <ele>1720.09</ele>
        <time>2023-04-28T10:16:23.921Z</time>
      </trkpt>
      <trkpt lat="42.60397" lon="2.15071">
        <ele>1721.08</ele>
        <time>2023-04-28T10:16:34.952Z</time>
      </trkpt>
      <trkpt lat="42.60396" lon="2.15077">
        <ele>1721.09</ele>
        <time>2023-04-28T10:16:45.322Z</time>
      </trkpt>
      <trkpt lat="42.60392" lon="2.15092">
        <ele>1720.09</ele>
        <time>2023-04-28T10:16:55.671Z</time>
      </trkpt>
      <trkpt lat="42.60388" lon="2.15107">
        <ele>1719.09</ele>
        <time>2023-04-28T10:17:06.081Z</time>
      </trkpt>
      <trkpt lat="42.60386" lon="2.15123">
        <ele>1719.32</ele>
        <time>2023-04-28T10:17:16.452Z</time>
      </trkpt>
      <trkpt lat="42.60384" lon="2.1514">
        <ele>1720.09</ele>
        <time>2023-04-28T10:17:26.911Z</time>
      </trkpt>
      <trkpt lat="42.60382" lon="2.15157">
        <ele>1721.09</ele>
        <time>2023-04-28T10:17:37.402Z</time>
      </trkpt>
      <trkpt lat="42.60384" lon="2.15175">
        <ele>1719.34</ele>
        <time>2023-04-28T10:17:47.719Z</time>
      </trkpt>
      <trkpt lat="42.60387" lon="2.15194">
        <ele>1716.09</ele>
        <time>2023-04-28T10:17:58.081Z</time>
      </trkpt>
      <trkpt lat="42.60389" lon="2.15211">
        <ele>1715.11</ele>
        <time>2023-04-28T10:18:08.334Z</time>
      </trkpt>
      <trkpt lat="42.60392" lon="2.15227">
        <ele>1714.09</ele>
        <time>2023-04-28T10:18:18.682Z</time>
      </trkpt>
      <trkpt lat="42.60397" lon="2.15243">
        <ele>1714.03</ele>
        <time>2023-04-28T10:18:28.990Z</time>
      </trkpt>
      <trkpt lat="42.60399" lon="2.1526">
        <ele>1714.09</ele>
        <time>2023-04-28T10:18:39.452Z</time>
      </trkpt>
      <trkpt lat="42.60401" lon="2.15276">
        <ele>1714.09</ele>
        <time>2023-04-28T10:18:49.792Z</time>
      </trkpt>
      <trkpt lat="42.60403" lon="2.15293">
        <ele>1715.09</ele>
        <time>2023-04-28T10:19:00.324Z</time>
      </trkpt>
      <trkpt lat="42.60404" lon="2.1531">
        <ele>1714.09</ele>
        <time>2023-04-28T10:19:10.660Z</time>
      </trkpt>
      <trkpt lat="42.60407" lon="2.15328">
        <ele>1712.34</ele>
        <time>2023-04-28T10:19:20.912Z</time>
      </trkpt>
      <trkpt lat="42.60406" lon="2.15345">
        <ele>1711.16</ele>
        <time>2023-04-28T10:19:31.252Z</time>
      </trkpt>
      <trkpt lat="42.60402" lon="2.15358">
        <ele>1712.09</ele>
        <time>2023-04-28T10:19:41.582Z</time>
      </trkpt>
      <trkpt lat="42.60398" lon="2.15376">
        <ele>1712.33</ele>
        <time>2023-04-28T10:19:51.952Z</time>
      </trkpt>
      <trkpt lat="42.60396" lon="2.15394">
        <ele>1711.11</ele>
        <time>2023-04-28T10:20:02.231Z</time>
      </trkpt>
      <trkpt lat="42.60395" lon="2.15411">
        <ele>1711.09</ele>
        <time>2023-04-28T10:20:12.732Z</time>
      </trkpt>
      <trkpt lat="42.60392" lon="2.15428">
        <ele>1709.1</ele>
        <time>2023-04-28T10:20:22.741Z</time>
      </trkpt>
      <trkpt lat="42.60387" lon="2.15444">
        <ele>1710.1</ele>
        <time>2023-04-28T10:20:33.081Z</time>
      </trkpt>
      <trkpt lat="42.60382" lon="2.15461">
        <ele>1709.1</ele>
        <time>2023-04-28T10:20:43.512Z</time>
      </trkpt>
      <trkpt lat="42.60376" lon="2.15474">
        <ele>1709.1</ele>
        <time>2023-04-28T10:20:53.852Z</time>
      </trkpt>
      <trkpt lat="42.60369" lon="2.15486">
        <ele>1709.1</ele>
        <time>2023-04-28T10:21:04.135Z</time>
      </trkpt>
      <trkpt lat="42.60369" lon="2.15487">
        <ele>1709.09</ele>
        <time>2023-04-28T10:21:14.602Z</time>
      </trkpt>
      <trkpt lat="42.6037" lon="2.15488">
        <ele>1708.1</ele>
        <time>2023-04-28T10:21:24.652Z</time>
      </trkpt>
      <trkpt lat="42.60369" lon="2.15489">
        <ele>1708.08</ele>
        <time>2023-04-28T10:21:49.081Z</time>
      </trkpt>
      <trkpt lat="42.60368" lon="2.1549">
        <ele>1708.1</ele>
        <time>2023-04-28T10:22:07.771Z</time>
      </trkpt>
      <trkpt lat="42.6036" lon="2.15502">
        <ele>1708.1</ele>
        <time>2023-04-28T10:22:18.051Z</time>
      </trkpt>
      <trkpt lat="42.6035" lon="2.15511">
        <ele>1708.1</ele>
        <time>2023-04-28T10:22:28.522Z</time>
      </trkpt>
      <trkpt lat="42.60342" lon="2.15521">
        <ele>1707.1</ele>
        <time>2023-04-28T10:22:38.891Z</time>
      </trkpt>
      <trkpt lat="42.60331" lon="2.15531">
        <ele>1705.35</ele>
        <time>2023-04-28T10:22:49.252Z</time>
      </trkpt>
      <trkpt lat="42.60324" lon="2.15545">
        <ele>1702.16</ele>
        <time>2023-04-28T10:22:59.682Z</time>
      </trkpt>
      <trkpt lat="42.60318" lon="2.15558">
        <ele>1701.1</ele>
        <time>2023-04-28T10:23:10.100Z</time>
      </trkpt>
      <trkpt lat="42.60314" lon="2.15569">
        <ele>1699.11</ele>
        <time>2023-04-28T10:23:20.423Z</time>
      </trkpt>
      <trkpt lat="42.60308" lon="2.1558">
        <ele>1699.1</ele>
        <time>2023-04-28T10:23:30.902Z</time>
      </trkpt>
      <trkpt lat="42.60304" lon="2.15594">
        <ele>1697.1</ele>
        <time>2023-04-28T10:23:41.341Z</time>
      </trkpt>
      <trkpt lat="42.60304" lon="2.15609">
        <ele>1696.1</ele>
        <time>2023-04-28T10:23:51.372Z</time>
      </trkpt>
      <trkpt lat="42.60304" lon="2.15623">
        <ele>1694.1</ele>
        <time>2023-04-28T10:24:01.802Z</time>
      </trkpt>
      <trkpt lat="42.60303" lon="2.15638">
        <ele>1693.1</ele>
        <time>2023-04-28T10:24:12.302Z</time>
      </trkpt>
      <trkpt lat="42.603" lon="2.15654">
        <ele>1691.35</ele>
        <time>2023-04-28T10:24:22.612Z</time>
      </trkpt>
      <trkpt lat="42.60298" lon="2.15668">
        <ele>1690.1</ele>
        <time>2023-04-28T10:24:33.023Z</time>
      </trkpt>
      <trkpt lat="42.60299" lon="2.15684">
        <ele>1689.09</ele>
        <time>2023-04-28T10:24:43.512Z</time>
      </trkpt>
      <trkpt lat="42.60299" lon="2.15699">
        <ele>1687.1</ele>
        <time>2023-04-28T10:24:53.825Z</time>
      </trkpt>
      <trkpt lat="42.60298" lon="2.15715">
        <ele>1686.1</ele>
        <time>2023-04-28T10:25:03.832Z</time>
      </trkpt>
      <trkpt lat="42.60297" lon="2.15731">
        <ele>1685.1</ele>
        <time>2023-04-28T10:25:14.222Z</time>
      </trkpt>
      <trkpt lat="42.60295" lon="2.15747">
        <ele>1685.1</ele>
        <time>2023-04-28T10:25:24.582Z</time>
      </trkpt>
      <trkpt lat="42.60295" lon="2.15764">
        <ele>1683.1</ele>
        <time>2023-04-28T10:25:34.872Z</time>
      </trkpt>
      <trkpt lat="42.60293" lon="2.1578">
        <ele>1682.1</ele>
        <time>2023-04-28T10:25:45.262Z</time>
      </trkpt>
      <trkpt lat="42.60291" lon="2.15797">
        <ele>1682.1</ele>
        <time>2023-04-28T10:25:55.712Z</time>
      </trkpt>
      <trkpt lat="42.60293" lon="2.15815">
        <ele>1681.1</ele>
        <time>2023-04-28T10:26:06.191Z</time>
      </trkpt>
      <trkpt lat="42.60293" lon="2.15832">
        <ele>1681.1</ele>
        <time>2023-04-28T10:26:16.572Z</time>
      </trkpt>
      <trkpt lat="42.60294" lon="2.15849">
        <ele>1681.1</ele>
        <time>2023-04-28T10:26:26.601Z</time>
      </trkpt>
      <trkpt lat="42.60294" lon="2.15867">
        <ele>1680.12</ele>
        <time>2023-04-28T10:26:37.161Z</time>
      </trkpt>
      <trkpt lat="42.60295" lon="2.15884">
        <ele>1679.17</ele>
        <time>2023-04-28T10:26:47.631Z</time>
      </trkpt>
      <trkpt lat="42.60294" lon="2.15901">
        <ele>1680.04</ele>
        <time>2023-04-28T10:26:58.011Z</time>
      </trkpt>
      <trkpt lat="42.60291" lon="2.15917">
        <ele>1680.1</ele>
        <time>2023-04-28T10:27:08.290Z</time>
      </trkpt>
      <trkpt lat="42.60288" lon="2.15934">
        <ele>1681.85</ele>
        <time>2023-04-28T10:27:18.731Z</time>
      </trkpt>
      <trkpt lat="42.60285" lon="2.15951">
        <ele>1682.1</ele>
        <time>2023-04-28T10:27:29.271Z</time>
      </trkpt>
      <trkpt lat="42.60283" lon="2.15968">
        <ele>1681.17</ele>
        <time>2023-04-28T10:27:39.702Z</time>
      </trkpt>
      <trkpt lat="42.60279" lon="2.15983">
        <ele>1683.1</ele>
        <time>2023-04-28T10:27:50.000Z</time>
      </trkpt>
      <trkpt lat="42.60268" lon="2.15991">
        <ele>1684.1</ele>
        <time>2023-04-28T10:28:00.497Z</time>
      </trkpt>
      <trkpt lat="42.60265" lon="2.15993">
        <ele>1683.35</ele>
        <time>2023-04-28T10:28:10.912Z</time>
      </trkpt>
      <trkpt lat="42.60253" lon="2.16002">
        <ele>1685.1</ele>
        <time>2023-04-28T10:28:21.221Z</time>
      </trkpt>
      <trkpt lat="42.60244" lon="2.16015">
        <ele>1684.1</ele>
        <time>2023-04-28T10:28:32.015Z</time>
      </trkpt>
      <trkpt lat="42.6024" lon="2.1603">
        <ele>1682.12</ele>
        <time>2023-04-28T10:28:42.482Z</time>
      </trkpt>
      <trkpt lat="42.60235" lon="2.16045">
        <ele>1680.17</ele>
        <time>2023-04-28T10:28:52.952Z</time>
      </trkpt>
      <trkpt lat="42.60232" lon="2.16058">
        <ele>1679.1</ele>
        <time>2023-04-28T10:29:03.252Z</time>
      </trkpt>
      <trkpt lat="42.60226" lon="2.16068">
        <ele>1678.12</ele>
        <time>2023-04-28T10:29:13.621Z</time>
      </trkpt>
      <trkpt lat="42.60218" lon="2.16077">
        <ele>1676.35</ele>
        <time>2023-04-28T10:29:23.932Z</time>
      </trkpt>
      <trkpt lat="42.60211" lon="2.16085">
        <ele>1676.1</ele>
        <time>2023-04-28T10:29:34.342Z</time>
      </trkpt>
      <trkpt lat="42.60204" lon="2.16093">
        <ele>1674.12</ele>
        <time>2023-04-28T10:29:44.711Z</time>
      </trkpt>
      <trkpt lat="42.60196" lon="2.161">
        <ele>1673.12</ele>
        <time>2023-04-28T10:29:55.081Z</time>
      </trkpt>
      <trkpt lat="42.60191" lon="2.16115">
        <ele>1672.11</ele>
        <time>2023-04-28T10:30:05.492Z</time>
      </trkpt>
      <trkpt lat="42.6019" lon="2.1613">
        <ele>1669.17</ele>
        <time>2023-04-28T10:30:15.520Z</time>
      </trkpt>
      <trkpt lat="42.60187" lon="2.16144">
        <ele>1667.11</ele>
        <time>2023-04-28T10:30:25.971Z</time>
      </trkpt>
      <trkpt lat="42.60182" lon="2.16157">
        <ele>1665.11</ele>
        <time>2023-04-28T10:30:36.532Z</time>
      </trkpt>
      <trkpt lat="42.60174" lon="2.16169">
        <ele>1665.11</ele>
        <time>2023-04-28T10:30:46.971Z</time>
      </trkpt>
      <trkpt lat="42.60165" lon="2.16175">
        <ele>1663.11</ele>
        <time>2023-04-28T10:30:57.452Z</time>
      </trkpt>
      <trkpt lat="42.60157" lon="2.16181">
        <ele>1663.11</ele>
        <time>2023-04-28T10:31:07.792Z</time>
      </trkpt>
      <trkpt lat="42.6015" lon="2.16187">
        <ele>1661.11</ele>
        <time>2023-04-28T10:31:18.141Z</time>
      </trkpt>
      <trkpt lat="42.60142" lon="2.16195">
        <ele>1657.12</ele>
        <time>2023-04-28T10:31:28.582Z</time>
      </trkpt>
      <trkpt lat="42.60132" lon="2.16201">
        <ele>1657.09</ele>
        <time>2023-04-28T10:31:39.030Z</time>
      </trkpt>
      <trkpt lat="42.60123" lon="2.1621">
        <ele>1654.11</ele>
        <time>2023-04-28T10:31:49.442Z</time>
      </trkpt>
      <trkpt lat="42.60115" lon="2.16217">
        <ele>1653.11</ele>
        <time>2023-04-28T10:31:59.722Z</time>
      </trkpt>
      <trkpt lat="42.60106" lon="2.16226">
        <ele>1651.11</ele>
        <time>2023-04-28T10:32:10.191Z</time>
      </trkpt>
      <trkpt lat="42.60094" lon="2.16231">
        <ele>1649.17</ele>
        <time>2023-04-28T10:32:20.692Z</time>
      </trkpt>
      <trkpt lat="42.60085" lon="2.16231">
        <ele>1647.36</ele>
        <time>2023-04-28T10:32:31.025Z</time>
      </trkpt>
      <trkpt lat="42.60073" lon="2.16235">
        <ele>1643.18</ele>
        <time>2023-04-28T10:32:42.018Z</time>
      </trkpt>
      <trkpt lat="42.60062" lon="2.16236">
        <ele>1641.36</ele>
        <time>2023-04-28T10:32:53.018Z</time>
      </trkpt>
      <trkpt lat="42.60051" lon="2.1624">
        <ele>1639.12</ele>
        <time>2023-04-28T10:33:03.028Z</time>
      </trkpt>
      <trkpt lat="42.60041" lon="2.16246">
        <ele>1639.1</ele>
        <time>2023-04-28T10:33:13.313Z</time>
      </trkpt>
      <trkpt lat="42.6003" lon="2.16259">
        <ele>1638.1</ele>
        <time>2023-04-28T10:33:23.852Z</time>
      </trkpt>
      <trkpt lat="42.60025" lon="2.16272">
        <ele>1637.11</ele>
        <time>2023-04-28T10:33:34.253Z</time>
      </trkpt>
      <trkpt lat="42.60019" lon="2.16285">
        <ele>1636.11</ele>
        <time>2023-04-28T10:33:44.733Z</time>
      </trkpt>
      <trkpt lat="42.60014" lon="2.16301">
        <ele>1634.11</ele>
        <time>2023-04-28T10:33:55.243Z</time>
      </trkpt>
      <trkpt lat="42.60009" lon="2.16315">
        <ele>1635.11</ele>
        <time>2023-04-28T10:34:05.683Z</time>
      </trkpt>
      <trkpt lat="42.60009" lon="2.16327">
        <ele>1636.34</ele>
        <time>2023-04-28T10:34:16.018Z</time>
      </trkpt>
      <trkpt lat="42.60009" lon="2.16339">
        <ele>1638.09</ele>
        <time>2023-04-28T10:34:26.342Z</time>
      </trkpt>
      <trkpt lat="42.60005" lon="2.16348">
        <ele>1638.11</ele>
        <time>2023-04-28T10:34:36.782Z</time>
      </trkpt>
      <trkpt lat="42.6" lon="2.16362">
        <ele>1637.11</ele>
        <time>2023-04-28T10:34:47.232Z</time>
      </trkpt>
      <trkpt lat="42.59994" lon="2.16374">
        <ele>1636.17</ele>
        <time>2023-04-28T10:34:57.703Z</time>
      </trkpt>
      <trkpt lat="42.59987" lon="2.16386">
        <ele>1635.11</ele>
        <time>2023-04-28T10:35:08.020Z</time>
      </trkpt>
      <trkpt lat="42.59981" lon="2.16397">
        <ele>1633.11</ele>
        <time>2023-04-28T10:35:18.033Z</time>
      </trkpt>
      <trkpt lat="42.59981" lon="2.16399">
        <ele>1632.11</ele>
        <time>2023-04-28T10:35:28.503Z</time>
      </trkpt>
      <trkpt lat="42.59973" lon="2.16411">
        <ele>1631.11</ele>
        <time>2023-04-28T10:35:38.963Z</time>
      </trkpt>
      <trkpt lat="42.59964" lon="2.16417">
        <ele>1630.36</ele>
        <time>2023-04-28T10:35:49.312Z</time>
      </trkpt>
      <trkpt lat="42.59959" lon="2.1643">
        <ele>1628.11</ele>
        <time>2023-04-28T10:35:59.673Z</time>
      </trkpt>
      <trkpt lat="42.59953" lon="2.16443">
        <ele>1625.12</ele>
        <time>2023-04-28T10:36:10.162Z</time>
      </trkpt>
      <trkpt lat="42.5995" lon="2.16451">
        <ele>1625.11</ele>
        <time>2023-04-28T10:36:21.019Z</time>
      </trkpt>
      <trkpt lat="42.59949" lon="2.16458">
        <ele>1624.11</ele>
        <time>2023-04-28T10:36:31.386Z</time>
      </trkpt>
      <trkpt lat="42.59943" lon="2.16468">
        <ele>1622.12</ele>
        <time>2023-04-28T10:36:41.555Z</time>
      </trkpt>
      <trkpt lat="42.59937" lon="2.16476">
        <ele>1620.12</ele>
        <time>2023-04-28T10:36:52.017Z</time>
      </trkpt>
      <trkpt lat="42.5993" lon="2.16486">
        <ele>1619.11</ele>
        <time>2023-04-28T10:37:02.368Z</time>
      </trkpt>
      <trkpt lat="42.5992" lon="2.16495">
        <ele>1618.36</ele>
        <time>2023-04-28T10:37:12.368Z</time>
      </trkpt>
      <trkpt lat="42.59915" lon="2.16502">
        <ele>1615.17</ele>
        <time>2023-04-28T10:37:22.718Z</time>
      </trkpt>
      <trkpt lat="42.5991" lon="2.16507">
        <ele>1613.36</ele>
        <time>2023-04-28T10:37:33.138Z</time>
      </trkpt>
      <trkpt lat="42.599" lon="2.16515">
        <ele>1613.11</ele>
        <time>2023-04-28T10:37:43.617Z</time>
      </trkpt>
      <trkpt lat="42.59892" lon="2.16525">
        <ele>1610.42</ele>
        <time>2023-04-28T10:37:53.949Z</time>
      </trkpt>
      <trkpt lat="42.59882" lon="2.1653">
        <ele>1609.36</ele>
        <time>2023-04-28T10:38:04.348Z</time>
      </trkpt>
      <trkpt lat="42.59873" lon="2.16533">
        <ele>1608.11</ele>
        <time>2023-04-28T10:38:14.731Z</time>
      </trkpt>
      <trkpt lat="42.59866" lon="2.16534">
        <ele>1606.1</ele>
        <time>2023-04-28T10:38:25.218Z</time>
      </trkpt>
      <trkpt lat="42.59857" lon="2.16532">
        <ele>1604.11</ele>
        <time>2023-04-28T10:38:35.631Z</time>
      </trkpt>
      <trkpt lat="42.59846" lon="2.16531">
        <ele>1603.11</ele>
        <time>2023-04-28T10:38:46.018Z</time>
      </trkpt>
      <trkpt lat="42.59835" lon="2.16527">
        <ele>1601.36</ele>
        <time>2023-04-28T10:38:56.297Z</time>
      </trkpt>
      <trkpt lat="42.59826" lon="2.16527">
        <ele>1598.12</ele>
        <time>2023-04-28T10:39:06.749Z</time>
      </trkpt>
      <trkpt lat="42.59828" lon="2.16527">
        <ele>1597.17</ele>
        <time>2023-04-28T10:39:17.751Z</time>
      </trkpt>
      <trkpt lat="42.59829" lon="2.16526">
        <ele>1596.11</ele>
        <time>2023-04-28T10:39:35.018Z</time>
      </trkpt>
      <trkpt lat="42.59828" lon="2.16527">
        <ele>1597.92</ele>
        <time>2023-04-28T10:40:30.016Z</time>
      </trkpt>
      <trkpt lat="42.59826" lon="2.16526">
        <ele>1597.11</ele>
        <time>2023-04-28T10:40:40.457Z</time>
      </trkpt>
      <trkpt lat="42.59825" lon="2.16526">
        <ele>1598.05</ele>
        <time>2023-04-28T10:40:51.011Z</time>
      </trkpt>
      <trkpt lat="42.59817" lon="2.16519">
        <ele>1595.36</ele>
        <time>2023-04-28T10:41:01.438Z</time>
      </trkpt>
      <trkpt lat="42.59809" lon="2.16511">
        <ele>1593.11</ele>
        <time>2023-04-28T10:41:11.999Z</time>
      </trkpt>
      <trkpt lat="42.59801" lon="2.16503">
        <ele>1592.11</ele>
        <time>2023-04-28T10:41:22.468Z</time>
      </trkpt>
      <trkpt lat="42.59792" lon="2.16497">
        <ele>1590.12</ele>
        <time>2023-04-28T10:41:32.899Z</time>
      </trkpt>
      <trkpt lat="42.59784" lon="2.1649">
        <ele>1588.35</ele>
        <time>2023-04-28T10:41:43.288Z</time>
      </trkpt>
      <trkpt lat="42.59778" lon="2.16489">
        <ele>1587.1</ele>
        <time>2023-04-28T10:41:53.738Z</time>
      </trkpt>
      <trkpt lat="42.5977" lon="2.16485">
        <ele>1585.12</ele>
        <time>2023-04-28T10:42:04.230Z</time>
      </trkpt>
      <trkpt lat="42.59763" lon="2.16479">
        <ele>1583.17</ele>
        <time>2023-04-28T10:42:14.598Z</time>
      </trkpt>
      <trkpt lat="42.59754" lon="2.16475">
        <ele>1581.1</ele>
        <time>2023-04-28T10:42:24.909Z</time>
      </trkpt>
      <trkpt lat="42.59747" lon="2.16483">
        <ele>1578.1</ele>
        <time>2023-04-28T10:42:35.409Z</time>
      </trkpt>
      <trkpt lat="42.59742" lon="2.16499">
        <ele>1577.12</ele>
        <time>2023-04-28T10:42:45.798Z</time>
      </trkpt>
      <trkpt lat="42.5974" lon="2.16513">
        <ele>1577.1</ele>
        <time>2023-04-28T10:42:56.331Z</time>
      </trkpt>
      <trkpt lat="42.59738" lon="2.16528">
        <ele>1578.1</ele>
        <time>2023-04-28T10:43:06.619Z</time>
      </trkpt>
      <trkpt lat="42.59736" lon="2.16539">
        <ele>1577.15</ele>
        <time>2023-04-28T10:43:16.619Z</time>
      </trkpt>
      <trkpt lat="42.59736" lon="2.16555">
        <ele>1578.11</ele>
        <time>2023-04-28T10:43:27.098Z</time>
      </trkpt>
      <trkpt lat="42.59736" lon="2.16571">
        <ele>1579.11</ele>
        <time>2023-04-28T10:43:37.499Z</time>
      </trkpt>
      <trkpt lat="42.59736" lon="2.16587">
        <ele>1579.11</ele>
        <time>2023-04-28T10:43:47.528Z</time>
      </trkpt>
      <trkpt lat="42.59737" lon="2.16603">
        <ele>1578.11</ele>
        <time>2023-04-28T10:43:57.818Z</time>
      </trkpt>
      <trkpt lat="42.59737" lon="2.16619">
        <ele>1577.11</ele>
        <time>2023-04-28T10:44:08.158Z</time>
      </trkpt>
      <trkpt lat="42.59738" lon="2.1662">
        <ele>1575.04</ele>
        <time>2023-04-28T10:47:40.478Z</time>
      </trkpt>
      <trkpt lat="42.59738" lon="2.16621">
        <ele>1575.11</ele>
        <time>2023-04-28T10:47:56.889Z</time>
      </trkpt>
      <trkpt lat="42.59742" lon="2.16631">
        <ele>1573.11</ele>
        <time>2023-04-28T10:48:07.349Z</time>
      </trkpt>
      <trkpt lat="42.59747" lon="2.16641">
        <ele>1571.92</ele>
        <time>2023-04-28T10:48:17.808Z</time>
      </trkpt>
      <trkpt lat="42.59751" lon="2.16648">
        <ele>1571.11</ele>
        <time>2023-04-28T10:48:28.809Z</time>
      </trkpt>
      <trkpt lat="42.59754" lon="2.1665">
        <ele>1570.36</ele>
        <time>2023-04-28T10:48:39.187Z</time>
      </trkpt>
      <trkpt lat="42.59758" lon="2.16651">
        <ele>1570.11</ele>
        <time>2023-04-28T10:48:49.609Z</time>
      </trkpt>
      <trkpt lat="42.5976" lon="2.1665">
        <ele>1570.11</ele>
        <time>2023-04-28T10:48:59.989Z</time>
      </trkpt>
      <trkpt lat="42.59769" lon="2.16646">
        <ele>1571.16</ele>
        <time>2023-04-28T10:49:10.972Z</time>
      </trkpt>
      <trkpt lat="42.59777" lon="2.16643">
        <ele>1570.17</ele>
        <time>2023-04-28T10:49:21.419Z</time>
      </trkpt>
      <trkpt lat="42.59784" lon="2.16641">
        <ele>1570.11</ele>
        <time>2023-04-28T10:49:31.888Z</time>
      </trkpt>
      <trkpt lat="42.5979" lon="2.16643">
        <ele>1570.11</ele>
        <time>2023-04-28T10:49:42.427Z</time>
      </trkpt>
      <trkpt lat="42.59797" lon="2.16646">
        <ele>1570.11</ele>
        <time>2023-04-28T10:49:52.739Z</time>
      </trkpt>
      <trkpt lat="42.59809" lon="2.16648">
        <ele>1569.12</ele>
        <time>2023-04-28T10:50:03.629Z</time>
      </trkpt>
      <trkpt lat="42.5982" lon="2.1665">
        <ele>1568.17</ele>
        <time>2023-04-28T10:50:14.078Z</time>
      </trkpt>
      <trkpt lat="42.59827" lon="2.16651">
        <ele>1565.17</ele>
        <time>2023-04-28T10:50:24.539Z</time>
      </trkpt>
      <trkpt lat="42.59832" lon="2.1665">
        <ele>1564.11</ele>
        <time>2023-04-28T10:50:35.028Z</time>
      </trkpt>
      <trkpt lat="42.59833" lon="2.16649">
        <ele>1564.11</ele>
        <time>2023-04-28T10:50:56.023Z</time>
      </trkpt>
      <trkpt lat="42.59835" lon="2.16649">
        <ele>1563.11</ele>
        <time>2023-04-28T10:51:07.023Z</time>
      </trkpt>
      <trkpt lat="42.59836" lon="2.1665">
        <ele>1564.05</ele>
        <time>2023-04-28T10:51:17.739Z</time>
      </trkpt>
      <trkpt lat="42.59837" lon="2.1665">
        <ele>1564.11</ele>
        <time>2023-04-28T10:51:46.019Z</time>
      </trkpt>
      <trkpt lat="42.59836" lon="2.16651">
        <ele>1564.11</ele>
        <time>2023-04-28T10:57:08.509Z</time>
      </trkpt>
      <trkpt lat="42.59835" lon="2.1665">
        <ele>1564.11</ele>
        <time>2023-04-28T10:57:18.989Z</time>
      </trkpt>
      <trkpt lat="42.59834" lon="2.1665">
        <ele>1564.11</ele>
        <time>2023-04-28T10:57:37.023Z</time>
      </trkpt>
      <trkpt lat="42.59834" lon="2.16652">
        <ele>1562.17</ele>
        <time>2023-04-28T10:57:47.028Z</time>
      </trkpt>
      <trkpt lat="42.59839" lon="2.16656">
        <ele>1562.17</ele>
        <time>2023-04-28T10:57:57.439Z</time>
      </trkpt>
      <trkpt lat="42.59845" lon="2.16663">
        <ele>1561.11</ele>
        <time>2023-04-28T10:58:07.690Z</time>
      </trkpt>
      <trkpt lat="42.5985" lon="2.16665">
        <ele>1560.11</ele>
        <time>2023-04-28T10:58:17.789Z</time>
      </trkpt>
      <trkpt lat="42.59857" lon="2.16667">
        <ele>1557.17</ele>
        <time>2023-04-28T10:58:28.009Z</time>
      </trkpt>
      <trkpt lat="42.59862" lon="2.16666">
        <ele>1556.17</ele>
        <time>2023-04-28T10:58:38.408Z</time>
      </trkpt>
      <trkpt lat="42.59865" lon="2.16667">
        <ele>1555.92</ele>
        <time>2023-04-28T10:58:48.738Z</time>
      </trkpt>
      <trkpt lat="42.59877" lon="2.16665">
        <ele>1557.11</ele>
        <time>2023-04-28T10:58:59.069Z</time>
      </trkpt>
      <trkpt lat="42.59887" lon="2.16662">
        <ele>1556.11</ele>
        <time>2023-04-28T10:59:09.478Z</time>
      </trkpt>
      <trkpt lat="42.59895" lon="2.1666">
        <ele>1556.11</ele>
        <time>2023-04-28T10:59:19.838Z</time>
      </trkpt>
      <trkpt lat="42.59905" lon="2.16658">
        <ele>1555.88</ele>
        <time>2023-04-28T10:59:30.178Z</time>
      </trkpt>
      <trkpt lat="42.59915" lon="2.16654">
        <ele>1555.11</ele>
        <time>2023-04-28T10:59:40.491Z</time>
      </trkpt>
      <trkpt lat="42.59924" lon="2.16653">
        <ele>1553.11</ele>
        <time>2023-04-28T10:59:50.798Z</time>
      </trkpt>
      <trkpt lat="42.59934" lon="2.16651">
        <ele>1551.36</ele>
        <time>2023-04-28T11:00:01.098Z</time>
      </trkpt>
      <trkpt lat="42.59944" lon="2.16649">
        <ele>1549.17</ele>
        <time>2023-04-28T11:00:11.398Z</time>
      </trkpt>
      <trkpt lat="42.59952" lon="2.16646">
        <ele>1552.11</ele>
        <time>2023-04-28T11:00:21.779Z</time>
      </trkpt>
      <trkpt lat="42.59961" lon="2.16642">
        <ele>1552.11</ele>
        <time>2023-04-28T11:00:32.328Z</time>
      </trkpt>
      <trkpt lat="42.59969" lon="2.16645">
        <ele>1549.11</ele>
        <time>2023-04-28T11:00:42.678Z</time>
      </trkpt>
      <trkpt lat="42.59981" lon="2.16647">
        <ele>1550.11</ele>
        <time>2023-04-28T11:00:53.098Z</time>
      </trkpt>
      <trkpt lat="42.59993" lon="2.16649">
        <ele>1549.11</ele>
        <time>2023-04-28T11:01:03.569Z</time>
      </trkpt>
      <trkpt lat="42.60004" lon="2.16656">
        <ele>1549.11</ele>
        <time>2023-04-28T11:01:14.022Z</time>
      </trkpt>
      <trkpt lat="42.60016" lon="2.16663">
        <ele>1547.11</ele>
        <time>2023-04-28T11:01:24.518Z</time>
      </trkpt>
      <trkpt lat="42.60027" lon="2.16668">
        <ele>1545.11</ele>
        <time>2023-04-28T11:01:34.928Z</time>
      </trkpt>
      <trkpt lat="42.60036" lon="2.16664">
        <ele>1543.37</ele>
        <time>2023-04-28T11:01:45.359Z</time>
      </trkpt>
      <trkpt lat="42.60043" lon="2.16665">
        <ele>1544.36</ele>
        <time>2023-04-28T11:01:55.699Z</time>
      </trkpt>
      <trkpt lat="42.6005" lon="2.16665">
        <ele>1542.88</ele>
        <time>2023-04-28T11:02:06.098Z</time>
      </trkpt>
      <trkpt lat="42.60058" lon="2.16667">
        <ele>1541.11</ele>
        <time>2023-04-28T11:02:16.479Z</time>
      </trkpt>
      <trkpt lat="42.60067" lon="2.16666">
        <ele>1539.11</ele>
        <time>2023-04-28T11:02:26.719Z</time>
      </trkpt>
      <trkpt lat="42.60082" lon="2.16664">
        <ele>1535.11</ele>
        <time>2023-04-28T11:02:37.248Z</time>
      </trkpt>
      <trkpt lat="42.60091" lon="2.16661">
        <ele>1535.11</ele>
        <time>2023-04-28T11:02:47.649Z</time>
      </trkpt>
      <trkpt lat="42.601" lon="2.16659">
        <ele>1537.11</ele>
        <time>2023-04-28T11:02:58.088Z</time>
      </trkpt>
      <trkpt lat="42.6011" lon="2.16657">
        <ele>1536.11</ele>
        <time>2023-04-28T11:03:08.539Z</time>
      </trkpt>
      <trkpt lat="42.60122" lon="2.16659">
        <ele>1534.12</ele>
        <time>2023-04-28T11:03:18.559Z</time>
      </trkpt>
      <trkpt lat="42.60134" lon="2.16661">
        <ele>1534.1</ele>
        <time>2023-04-28T11:03:29.003Z</time>
      </trkpt>
      <trkpt lat="42.60147" lon="2.16659">
        <ele>1533.05</ele>
        <time>2023-04-28T11:03:39.517Z</time>
      </trkpt>
      <trkpt lat="42.60156" lon="2.16657">
        <ele>1533.37</ele>
        <time>2023-04-28T11:03:49.978Z</time>
      </trkpt>
      <trkpt lat="42.60161" lon="2.16651">
        <ele>1533.12</ele>
        <time>2023-04-28T11:04:00.278Z</time>
      </trkpt>
      <trkpt lat="42.60171" lon="2.16648">
        <ele>1533.12</ele>
        <time>2023-04-28T11:04:10.598Z</time>
      </trkpt>
      <trkpt lat="42.60183" lon="2.16645">
        <ele>1532.17</ele>
        <time>2023-04-28T11:04:21.051Z</time>
      </trkpt>
      <trkpt lat="42.60196" lon="2.16642">
        <ele>1533.12</ele>
        <time>2023-04-28T11:04:31.419Z</time>
      </trkpt>
      <trkpt lat="42.60207" lon="2.16632">
        <ele>1532.12</ele>
        <time>2023-04-28T11:04:41.909Z</time>
      </trkpt>
      <trkpt lat="42.60214" lon="2.16629">
        <ele>1529.18</ele>
        <time>2023-04-28T11:04:52.389Z</time>
      </trkpt>
      <trkpt lat="42.60221" lon="2.16628">
        <ele>1526.12</ele>
        <time>2023-04-28T11:05:02.709Z</time>
      </trkpt>
      <trkpt lat="42.60233" lon="2.16627">
        <ele>1525.37</ele>
        <time>2023-04-28T11:05:13.197Z</time>
      </trkpt>
      <trkpt lat="42.60239" lon="2.16627">
        <ele>1523.12</ele>
        <time>2023-04-28T11:05:23.629Z</time>
      </trkpt>
      <trkpt lat="42.60241" lon="2.16627">
        <ele>1521.12</ele>
        <time>2023-04-28T11:05:34.019Z</time>
      </trkpt>
      <trkpt lat="42.60241" lon="2.16629">
        <ele>1518.37</ele>
        <time>2023-04-28T11:05:47.014Z</time>
      </trkpt>
      <trkpt lat="42.60241" lon="2.16628">
        <ele>1517.12</ele>
        <time>2023-04-28T11:06:00.949Z</time>
      </trkpt>
      <trkpt lat="42.60242" lon="2.16628">
        <ele>1518.11</ele>
        <time>2023-04-28T11:07:01.036Z</time>
      </trkpt>
      <trkpt lat="42.60248" lon="2.16627">
        <ele>1518.12</ele>
        <time>2023-04-28T11:07:11.429Z</time>
      </trkpt>
      <trkpt lat="42.60258" lon="2.16624">
        <ele>1517.12</ele>
        <time>2023-04-28T11:07:21.752Z</time>
      </trkpt>
      <trkpt lat="42.60266" lon="2.16619">
        <ele>1517.12</ele>
        <time>2023-04-28T11:07:32.191Z</time>
      </trkpt>
      <trkpt lat="42.60275" lon="2.16615">
        <ele>1516.12</ele>
        <time>2023-04-28T11:07:42.429Z</time>
      </trkpt>
      <trkpt lat="42.60284" lon="2.16611">
        <ele>1516.12</ele>
        <time>2023-04-28T11:07:52.889Z</time>
      </trkpt>
      <trkpt lat="42.60295" lon="2.16603">
        <ele>1516.13</ele>
        <time>2023-04-28T11:08:03.338Z</time>
      </trkpt>
      <trkpt lat="42.60304" lon="2.16599">
        <ele>1514.37</ele>
        <time>2023-04-28T11:08:13.339Z</time>
      </trkpt>
      <trkpt lat="42.60312" lon="2.16593">
        <ele>1514.12</ele>
        <time>2023-04-28T11:08:23.708Z</time>
      </trkpt>
      <trkpt lat="42.60319" lon="2.16587">
        <ele>1514.13</ele>
        <time>2023-04-28T11:08:34.098Z</time>
      </trkpt>
      <trkpt lat="42.60325" lon="2.16581">
        <ele>1513.12</ele>
        <time>2023-04-28T11:08:44.098Z</time>
      </trkpt>
      <trkpt lat="42.60335" lon="2.16573">
        <ele>1514.12</ele>
        <time>2023-04-28T11:08:54.098Z</time>
      </trkpt>
      <trkpt lat="42.60345" lon="2.16566">
        <ele>1512.12</ele>
        <time>2023-04-28T11:09:04.579Z</time>
      </trkpt>
      <trkpt lat="42.60353" lon="2.16559">
        <ele>1514.37</ele>
        <time>2023-04-28T11:09:15.088Z</time>
      </trkpt>
      <trkpt lat="42.60361" lon="2.16552">
        <ele>1512.13</ele>
        <time>2023-04-28T11:09:25.379Z</time>
      </trkpt>
      <trkpt lat="42.6037" lon="2.16544">
        <ele>1511.12</ele>
        <time>2023-04-28T11:09:35.731Z</time>
      </trkpt>
      <trkpt lat="42.60379" lon="2.16535">
        <ele>1511.12</ele>
        <time>2023-04-28T11:09:45.988Z</time>
      </trkpt>
      <trkpt lat="42.60389" lon="2.16526">
        <ele>1508.88</ele>
        <time>2023-04-28T11:09:56.267Z</time>
      </trkpt>
      <trkpt lat="42.604" lon="2.1652">
        <ele>1509.12</ele>
        <time>2023-04-28T11:10:06.598Z</time>
      </trkpt>
      <trkpt lat="42.60406" lon="2.16509">
        <ele>1508.12</ele>
        <time>2023-04-28T11:10:17.027Z</time>
      </trkpt>
      <trkpt lat="42.6041" lon="2.16504">
        <ele>1508.12</ele>
        <time>2023-04-28T11:10:27.398Z</time>
      </trkpt>
      <trkpt lat="42.60419" lon="2.16496">
        <ele>1505.87</ele>
        <time>2023-04-28T11:10:37.409Z</time>
      </trkpt>
      <trkpt lat="42.60426" lon="2.1649">
        <ele>1505.12</ele>
        <time>2023-04-28T11:10:47.471Z</time>
      </trkpt>
      <trkpt lat="42.60435" lon="2.16486">
        <ele>1505.12</ele>
        <time>2023-04-28T11:10:57.948Z</time>
      </trkpt>
      <trkpt lat="42.60444" lon="2.16481">
        <ele>1504.13</ele>
        <time>2023-04-28T11:11:08.258Z</time>
      </trkpt>
      <trkpt lat="42.60457" lon="2.16474">
        <ele>1501.18</ele>
        <time>2023-04-28T11:11:18.678Z</time>
      </trkpt>
      <trkpt lat="42.60468" lon="2.16468">
        <ele>1498.12</ele>
        <time>2023-04-28T11:11:29.208Z</time>
      </trkpt>
      <trkpt lat="42.60477" lon="2.16461">
        <ele>1495.18</ele>
        <time>2023-04-28T11:11:39.529Z</time>
      </trkpt>
      <trkpt lat="42.60487" lon="2.1645">
        <ele>1493.18</ele>
        <time>2023-04-28T11:11:49.829Z</time>
      </trkpt>
      <trkpt lat="42.60497" lon="2.1644">
        <ele>1491.12</ele>
        <time>2023-04-28T11:12:00.368Z</time>
      </trkpt>
      <trkpt lat="42.60505" lon="2.1643">
        <ele>1487.37</ele>
        <time>2023-04-28T11:12:10.668Z</time>
      </trkpt>
      <trkpt lat="42.60507" lon="2.16416">
        <ele>1486.13</ele>
        <time>2023-04-28T11:12:21.098Z</time>
      </trkpt>
      <trkpt lat="42.60513" lon="2.16404">
        <ele>1488.1</ele>
        <time>2023-04-28T11:12:31.479Z</time>
      </trkpt>
      <trkpt lat="42.60518" lon="2.16399">
        <ele>1490.12</ele>
        <time>2023-04-28T11:12:41.958Z</time>
      </trkpt>
      <trkpt lat="42.60522" lon="2.16394">
        <ele>1493.06</ele>
        <time>2023-04-28T11:12:52.958Z</time>
      </trkpt>
      <trkpt lat="42.60529" lon="2.16385">
        <ele>1495.12</ele>
        <time>2023-04-28T11:13:03.358Z</time>
      </trkpt>
      <trkpt lat="42.60542" lon="2.16384">
        <ele>1494.12</ele>
        <time>2023-04-28T11:13:13.828Z</time>
      </trkpt>
      <trkpt lat="42.60552" lon="2.1638">
        <ele>1492.37</ele>
        <time>2023-04-28T11:13:24.258Z</time>
      </trkpt>
      <trkpt lat="42.60562" lon="2.16375">
        <ele>1491.12</ele>
        <time>2023-04-28T11:13:34.627Z</time>
      </trkpt>
      <trkpt lat="42.60572" lon="2.16376">
        <ele>1489.12</ele>
        <time>2023-04-28T11:13:45.098Z</time>
      </trkpt>
      <trkpt lat="42.60582" lon="2.16379">
        <ele>1485.12</ele>
        <time>2023-04-28T11:13:55.438Z</time>
      </trkpt>
      <trkpt lat="42.60594" lon="2.16382">
        <ele>1483.12</ele>
        <time>2023-04-28T11:14:05.709Z</time>
      </trkpt>
      <trkpt lat="42.60607" lon="2.16381">
        <ele>1482.12</ele>
        <time>2023-04-28T11:14:16.259Z</time>
      </trkpt>
      <trkpt lat="42.60619" lon="2.16381">
        <ele>1483.12</ele>
        <time>2023-04-28T11:14:26.479Z</time>
      </trkpt>
      <trkpt lat="42.60631" lon="2.16379">
        <ele>1483.06</ele>
        <time>2023-04-28T11:14:37.009Z</time>
      </trkpt>
      <trkpt lat="42.60643" lon="2.16377">
        <ele>1482.37</ele>
        <time>2023-04-28T11:14:47.268Z</time>
      </trkpt>
      <trkpt lat="42.60654" lon="2.16375">
        <ele>1484.12</ele>
        <time>2023-04-28T11:14:57.699Z</time>
      </trkpt>
      <trkpt lat="42.60666" lon="2.16374">
        <ele>1484.12</ele>
        <time>2023-04-28T11:15:08.178Z</time>
      </trkpt>
      <trkpt lat="42.60678" lon="2.16374">
        <ele>1487.81</ele>
        <time>2023-04-28T11:15:18.628Z</time>
      </trkpt>
      <trkpt lat="42.60689" lon="2.16374">
        <ele>1488.12</ele>
        <time>2023-04-28T11:15:29.098Z</time>
      </trkpt>
      <trkpt lat="42.60701" lon="2.16375">
        <ele>1486.19</ele>
        <time>2023-04-28T11:15:39.471Z</time>
      </trkpt>
      <trkpt lat="42.60714" lon="2.16376">
        <ele>1483.14</ele>
        <time>2023-04-28T11:15:49.929Z</time>
      </trkpt>
      <trkpt lat="42.60728" lon="2.1638">
        <ele>1481.37</ele>
        <time>2023-04-28T11:16:00.368Z</time>
      </trkpt>
      <trkpt lat="42.6074" lon="2.16376">
        <ele>1481.13</ele>
        <time>2023-04-28T11:16:10.699Z</time>
      </trkpt>
      <trkpt lat="42.60753" lon="2.16378">
        <ele>1478.37</ele>
        <time>2023-04-28T11:16:21.098Z</time>
      </trkpt>
      <trkpt lat="42.60762" lon="2.1638">
        <ele>1479.12</ele>
        <time>2023-04-28T11:16:31.539Z</time>
      </trkpt>
      <trkpt lat="42.60771" lon="2.16382">
        <ele>1476.12</ele>
        <time>2023-04-28T11:16:41.599Z</time>
      </trkpt>
      <trkpt lat="42.60779" lon="2.16389">
        <ele>1474.12</ele>
        <time>2023-04-28T11:16:51.751Z</time>
      </trkpt>
      <trkpt lat="42.60793" lon="2.16395">
        <ele>1471.12</ele>
        <time>2023-04-28T11:17:02.084Z</time>
      </trkpt>
      <trkpt lat="42.60803" lon="2.164">
        <ele>1472.06</ele>
        <time>2023-04-28T11:17:12.538Z</time>
      </trkpt>
      <trkpt lat="42.60809" lon="2.16402">
        <ele>1471.19</ele>
        <time>2023-04-28T11:17:23.009Z</time>
      </trkpt>
      <trkpt lat="42.60819" lon="2.16407">
        <ele>1469.12</ele>
        <time>2023-04-28T11:17:33.419Z</time>
      </trkpt>
      <trkpt lat="42.60821" lon="2.16416">
        <ele>1469.07</ele>
        <time>2023-04-28T11:17:43.429Z</time>
      </trkpt>
      <trkpt lat="42.60821" lon="2.16425">
        <ele>1468.12</ele>
        <time>2023-04-28T11:17:53.879Z</time>
      </trkpt>
      <trkpt lat="42.6082" lon="2.16435">
        <ele>1466.25</ele>
        <time>2023-04-28T11:18:04.891Z</time>
      </trkpt>
      <trkpt lat="42.6082" lon="2.16447">
        <ele>1465.12</ele>
        <time>2023-04-28T11:18:15.377Z</time>
      </trkpt>
      <trkpt lat="42.60818" lon="2.16466">
        <ele>1457.38</ele>
        <time>2023-04-28T11:18:25.928Z</time>
      </trkpt>
      <trkpt lat="42.60816" lon="2.16479">
        <ele>1455.13</ele>
        <time>2023-04-28T11:18:36.229Z</time>
      </trkpt>
      <trkpt lat="42.60816" lon="2.16493">
        <ele>1452.14</ele>
        <time>2023-04-28T11:18:46.558Z</time>
      </trkpt>
      <trkpt lat="42.60817" lon="2.16505">
        <ele>1449.13</ele>
        <time>2023-04-28T11:18:56.988Z</time>
      </trkpt>
      <trkpt lat="42.60821" lon="2.16516">
        <ele>1446.38</ele>
        <time>2023-04-28T11:19:07.012Z</time>
      </trkpt>
      <trkpt lat="42.60832" lon="2.16515">
        <ele>1444.11</ele>
        <time>2023-04-28T11:19:17.849Z</time>
      </trkpt>
      <trkpt lat="42.60838" lon="2.16514">
        <ele>1442.13</ele>
        <time>2023-04-28T11:19:28.749Z</time>
      </trkpt>
      <trkpt lat="42.6084" lon="2.16517">
        <ele>1442.13</ele>
        <time>2023-04-28T11:19:38.769Z</time>
      </trkpt>
      <trkpt lat="42.6084" lon="2.16518">
        <ele>1441.38</ele>
        <time>2023-04-28T11:20:45.013Z</time>
      </trkpt>
      <trkpt lat="42.60842" lon="2.16527">
        <ele>1441.19</ele>
        <time>2023-04-28T11:20:55.679Z</time>
      </trkpt>
      <trkpt lat="42.6084" lon="2.16529">
        <ele>1441.13</ele>
        <time>2023-04-28T11:21:06.668Z</time>
      </trkpt>
      <trkpt lat="42.60841" lon="2.1653">
        <ele>1438.13</ele>
        <time>2023-04-28T11:22:15.029Z</time>
      </trkpt>
      <trkpt lat="42.60838" lon="2.16532">
        <ele>1440.13</ele>
        <time>2023-04-28T11:22:26.022Z</time>
      </trkpt>
      <trkpt lat="42.60833" lon="2.16537">
        <ele>1438.19</ele>
        <time>2023-04-28T11:22:37.019Z</time>
      </trkpt>
      <trkpt lat="42.60833" lon="2.16549">
        <ele>1438.06</ele>
        <time>2023-04-28T11:22:48.028Z</time>
      </trkpt>
      <trkpt lat="42.60836" lon="2.16563">
        <ele>1437.44</ele>
        <time>2023-04-28T11:22:59.019Z</time>
      </trkpt>
      <trkpt lat="42.60838" lon="2.16566">
        <ele>1438.13</ele>
        <time>2023-04-28T11:23:09.021Z</time>
      </trkpt>
      <trkpt lat="42.60837" lon="2.16566">
        <ele>1436.25</ele>
        <time>2023-04-28T11:24:43.010Z</time>
      </trkpt>
      <trkpt lat="42.60837" lon="2.16564">
        <ele>1436.13</ele>
        <time>2023-04-28T11:24:53.023Z</time>
      </trkpt>
      <trkpt lat="42.60836" lon="2.16565">
        <ele>1435.13</ele>
        <time>2023-04-28T11:26:00.010Z</time>
      </trkpt>
      <trkpt lat="42.60837" lon="2.16566">
        <ele>1435.13</ele>
        <time>2023-04-28T11:37:06.014Z</time>
      </trkpt>
      <trkpt lat="42.60838" lon="2.1656">
        <ele>1432.06</ele>
        <time>2023-04-28T11:52:02.941Z</time>
      </trkpt>
      <trkpt lat="42.6084" lon="2.16563">
        <ele>1432.38</ele>
        <time>2023-04-28T11:52:12.948Z</time>
      </trkpt>
      <trkpt lat="42.60841" lon="2.16564">
        <ele>1435.07</ele>
        <time>2023-04-28T11:52:43.955Z</time>
      </trkpt>
      <trkpt lat="42.6084" lon="2.16565">
        <ele>1433.9</ele>
        <time>2023-04-28T11:52:53.971Z</time>
      </trkpt>
      <trkpt lat="42.60837" lon="2.16567">
        <ele>1436.11</ele>
        <time>2023-04-28T11:53:04.939Z</time>
      </trkpt>
      <trkpt lat="42.60835" lon="2.16568">
        <ele>1438.05</ele>
        <time>2023-04-28T11:53:14.939Z</time>
      </trkpt>
      <trkpt lat="42.60837" lon="2.16567">
        <ele>1438.07</ele>
        <time>2023-04-28T11:53:24.949Z</time>
      </trkpt>
      <trkpt lat="42.60839" lon="2.16569">
        <ele>1436.32</ele>
        <time>2023-04-28T11:53:35.930Z</time>
      </trkpt>
      <trkpt lat="42.60844" lon="2.16578">
        <ele>1436.13</ele>
        <time>2023-04-28T11:53:45.941Z</time>
      </trkpt>
      <trkpt lat="42.60848" lon="2.16582">
        <ele>1438.87</ele>
        <time>2023-04-28T11:53:56.216Z</time>
      </trkpt>
      <trkpt lat="42.60853" lon="2.16589">
        <ele>1437.13</ele>
        <time>2023-04-28T11:54:06.565Z</time>
      </trkpt>
      <trkpt lat="42.60857" lon="2.16599">
        <ele>1439.13</ele>
        <time>2023-04-28T11:54:16.986Z</time>
      </trkpt>
      <trkpt lat="42.60858" lon="2.16611">
        <ele>1441.13</ele>
        <time>2023-04-28T11:54:27.296Z</time>
      </trkpt>
      <trkpt lat="42.60863" lon="2.16619">
        <ele>1441.14</ele>
        <time>2023-04-28T11:54:37.746Z</time>
      </trkpt>
      <trkpt lat="42.60867" lon="2.16628">
        <ele>1443.13</ele>
        <time>2023-04-28T11:54:48.231Z</time>
      </trkpt>
      <trkpt lat="42.6087" lon="2.16637">
        <ele>1444.13</ele>
        <time>2023-04-28T11:54:58.236Z</time>
      </trkpt>
      <trkpt lat="42.60873" lon="2.16647">
        <ele>1447.11</ele>
        <time>2023-04-28T11:55:08.596Z</time>
      </trkpt>
      <trkpt lat="42.60875" lon="2.16655">
        <ele>1448.13</ele>
        <time>2023-04-28T11:55:19.616Z</time>
      </trkpt>
      <trkpt lat="42.60878" lon="2.16661">
        <ele>1449.88</ele>
        <time>2023-04-28T11:55:29.958Z</time>
      </trkpt>
      <trkpt lat="42.60883" lon="2.16665">
        <ele>1450.13</ele>
        <time>2023-04-28T11:55:40.416Z</time>
      </trkpt>
      <trkpt lat="42.60888" lon="2.16664">
        <ele>1452.89</ele>
        <time>2023-04-28T11:55:50.866Z</time>
      </trkpt>
      <trkpt lat="42.60894" lon="2.16667">
        <ele>1455.13</ele>
        <time>2023-04-28T11:56:01.847Z</time>
      </trkpt>
      <trkpt lat="42.60899" lon="2.16673">
        <ele>1456.07</ele>
        <time>2023-04-28T11:56:12.215Z</time>
      </trkpt>
      <trkpt lat="42.60903" lon="2.16679">
        <ele>1456.07</ele>
        <time>2023-04-28T11:56:22.256Z</time>
      </trkpt>
      <trkpt lat="42.60905" lon="2.16684">
        <ele>1457.12</ele>
        <time>2023-04-28T11:56:32.811Z</time>
      </trkpt>
      <trkpt lat="42.60904" lon="2.1669">
        <ele>1459.13</ele>
        <time>2023-04-28T11:56:43.865Z</time>
      </trkpt>
      <trkpt lat="42.60908" lon="2.16692">
        <ele>1460.13</ele>
        <time>2023-04-28T11:56:54.871Z</time>
      </trkpt>
      <trkpt lat="42.6091" lon="2.16698">
        <ele>1461.13</ele>
        <time>2023-04-28T11:57:05.327Z</time>
      </trkpt>
      <trkpt lat="42.60914" lon="2.16704">
        <ele>1464.12</ele>
        <time>2023-04-28T11:57:15.846Z</time>
      </trkpt>
      <trkpt lat="42.60918" lon="2.16708">
        <ele>1464.13</ele>
        <time>2023-04-28T11:57:26.896Z</time>
      </trkpt>
      <trkpt lat="42.60926" lon="2.16714">
        <ele>1465.13</ele>
        <time>2023-04-28T11:57:37.832Z</time>
      </trkpt>
      <trkpt lat="42.60931" lon="2.16726">
        <ele>1466.19</ele>
        <time>2023-04-28T11:57:48.831Z</time>
      </trkpt>
      <trkpt lat="42.60937" lon="2.1673">
        <ele>1466.13</ele>
        <time>2023-04-28T11:57:59.765Z</time>
      </trkpt>
      <trkpt lat="42.60937" lon="2.16728">
        <ele>1467.88</ele>
        <time>2023-04-28T11:58:09.776Z</time>
      </trkpt>
      <trkpt lat="42.60938" lon="2.16726">
        <ele>1468.13</ele>
        <time>2023-04-28T11:58:20.556Z</time>
      </trkpt>
      <trkpt lat="42.60942" lon="2.16726">
        <ele>1469.13</ele>
        <time>2023-04-28T11:58:31.616Z</time>
      </trkpt>
      <trkpt lat="42.60943" lon="2.16726">
        <ele>1470.13</ele>
        <time>2023-04-28T11:58:42.116Z</time>
      </trkpt>
      <trkpt lat="42.60944" lon="2.16727">
        <ele>1471.13</ele>
        <time>2023-04-28T11:58:52.516Z</time>
      </trkpt>
      <trkpt lat="42.60945" lon="2.16728">
        <ele>1472.13</ele>
        <time>2023-04-28T11:59:04.446Z</time>
      </trkpt>
      <trkpt lat="42.60947" lon="2.16743">
        <ele>1473.13</ele>
        <time>2023-04-28T11:59:14.845Z</time>
      </trkpt>
      <trkpt lat="42.60953" lon="2.16753">
        <ele>1473.13</ele>
        <time>2023-04-28T11:59:25.316Z</time>
      </trkpt>
      <trkpt lat="42.60959" lon="2.16761">
        <ele>1473.13</ele>
        <time>2023-04-28T11:59:35.696Z</time>
      </trkpt>
      <trkpt lat="42.60965" lon="2.16776">
        <ele>1473.14</ele>
        <time>2023-04-28T11:59:46.626Z</time>
      </trkpt>
      <trkpt lat="42.60971" lon="2.16788">
        <ele>1475.12</ele>
        <time>2023-04-28T11:59:57.066Z</time>
      </trkpt>
      <trkpt lat="42.60977" lon="2.16797">
        <ele>1475.09</ele>
        <time>2023-04-28T12:00:07.457Z</time>
      </trkpt>
      <trkpt lat="42.60983" lon="2.16807">
        <ele>1475.14</ele>
        <time>2023-04-28T12:00:17.906Z</time>
      </trkpt>
      <trkpt lat="42.60988" lon="2.16817">
        <ele>1476.14</ele>
        <time>2023-04-28T12:00:28.336Z</time>
      </trkpt>
      <trkpt lat="42.60994" lon="2.16826">
        <ele>1478.12</ele>
        <time>2023-04-28T12:00:38.676Z</time>
      </trkpt>
      <trkpt lat="42.60999" lon="2.16833">
        <ele>1481.12</ele>
        <time>2023-04-28T12:00:49.116Z</time>
      </trkpt>
      <trkpt lat="42.61005" lon="2.16841">
        <ele>1482.14</ele>
        <time>2023-04-28T12:00:59.466Z</time>
      </trkpt>
      <trkpt lat="42.61011" lon="2.16839">
        <ele>1483.14</ele>
        <time>2023-04-28T12:01:09.971Z</time>
      </trkpt>
      <trkpt lat="42.6102" lon="2.1684">
        <ele>1485.14</ele>
        <time>2023-04-28T12:01:20.215Z</time>
      </trkpt>
      <trkpt lat="42.61023" lon="2.16838">
        <ele>1486.14</ele>
        <time>2023-04-28T12:01:30.666Z</time>
      </trkpt>
      <trkpt lat="42.61023" lon="2.16837">
        <ele>1485.14</ele>
        <time>2023-04-28T12:01:43.836Z</time>
      </trkpt>
      <trkpt lat="42.61021" lon="2.1683">
        <ele>1488.13</ele>
        <time>2023-04-28T12:01:54.386Z</time>
      </trkpt>
      <trkpt lat="42.61017" lon="2.1682">
        <ele>1489.14</ele>
        <time>2023-04-28T12:02:04.836Z</time>
      </trkpt>
      <trkpt lat="42.61013" lon="2.16807">
        <ele>1491.14</ele>
        <time>2023-04-28T12:02:15.076Z</time>
      </trkpt>
      <trkpt lat="42.61007" lon="2.16796">
        <ele>1492.14</ele>
        <time>2023-04-28T12:02:25.126Z</time>
      </trkpt>
      <trkpt lat="42.61002" lon="2.16784">
        <ele>1493.14</ele>
        <time>2023-04-28T12:02:35.646Z</time>
      </trkpt>
      <trkpt lat="42.60999" lon="2.16772">
        <ele>1493.14</ele>
        <time>2023-04-28T12:02:45.656Z</time>
      </trkpt>
      <trkpt lat="42.60994" lon="2.1676">
        <ele>1494.88</ele>
        <time>2023-04-28T12:02:56.196Z</time>
      </trkpt>
      <trkpt lat="42.60992" lon="2.16747">
        <ele>1496.13</ele>
        <time>2023-04-28T12:03:06.215Z</time>
      </trkpt>
      <trkpt lat="42.60993" lon="2.16735">
        <ele>1497.13</ele>
        <time>2023-04-28T12:03:16.616Z</time>
      </trkpt>
      <trkpt lat="42.60992" lon="2.16732">
        <ele>1497.13</ele>
        <time>2023-04-28T12:03:26.625Z</time>
      </trkpt>
      <trkpt lat="42.60992" lon="2.16733">
        <ele>1496.13</ele>
        <time>2023-04-28T12:03:50.846Z</time>
      </trkpt>
      <trkpt lat="42.60993" lon="2.16733">
        <ele>1496.88</ele>
        <time>2023-04-28T12:04:20.716Z</time>
      </trkpt>
      <trkpt lat="42.60992" lon="2.16723">
        <ele>1498.07</ele>
        <time>2023-04-28T12:04:31.145Z</time>
      </trkpt>
      <trkpt lat="42.60992" lon="2.16709">
        <ele>1499.13</ele>
        <time>2023-04-28T12:04:41.486Z</time>
      </trkpt>
      <trkpt lat="42.60995" lon="2.16694">
        <ele>1499.13</ele>
        <time>2023-04-28T12:04:51.957Z</time>
      </trkpt>
      <trkpt lat="42.60999" lon="2.1668">
        <ele>1499.13</ele>
        <time>2023-04-28T12:05:02.431Z</time>
      </trkpt>
      <trkpt lat="42.61003" lon="2.16666">
        <ele>1500.12</ele>
        <time>2023-04-28T12:05:12.929Z</time>
      </trkpt>
      <trkpt lat="42.61011" lon="2.16655">
        <ele>1500.13</ele>
        <time>2023-04-28T12:05:23.751Z</time>
      </trkpt>
      <trkpt lat="42.61016" lon="2.16642">
        <ele>1501.13</ele>
        <time>2023-04-28T12:05:34.235Z</time>
      </trkpt>
      <trkpt lat="42.61017" lon="2.16639">
        <ele>1500.95</ele>
        <time>2023-04-28T12:05:44.735Z</time>
      </trkpt>
      <trkpt lat="42.61025" lon="2.16626">
        <ele>1501.12</ele>
        <time>2023-04-28T12:05:55.591Z</time>
      </trkpt>
      <trkpt lat="42.61034" lon="2.16617">
        <ele>1504.12</ele>
        <time>2023-04-28T12:06:05.926Z</time>
      </trkpt>
      <trkpt lat="42.61044" lon="2.16612">
        <ele>1505.13</ele>
        <time>2023-04-28T12:06:16.347Z</time>
      </trkpt>
      <trkpt lat="42.61053" lon="2.1661">
        <ele>1505.13</ele>
        <time>2023-04-28T12:06:26.816Z</time>
      </trkpt>
      <trkpt lat="42.61063" lon="2.16609">
        <ele>1504.13</ele>
        <time>2023-04-28T12:06:37.156Z</time>
      </trkpt>
      <trkpt lat="42.61074" lon="2.1661">
        <ele>1505.13</ele>
        <time>2023-04-28T12:06:47.511Z</time>
      </trkpt>
      <trkpt lat="42.61083" lon="2.16614">
        <ele>1505.13</ele>
        <time>2023-04-28T12:06:57.936Z</time>
      </trkpt>
      <trkpt lat="42.61094" lon="2.16618">
        <ele>1505.13</ele>
        <time>2023-04-28T12:07:08.891Z</time>
      </trkpt>
      <trkpt lat="42.61104" lon="2.16621">
        <ele>1506.13</ele>
        <time>2023-04-28T12:07:18.906Z</time>
      </trkpt>
      <trkpt lat="42.61115" lon="2.16623">
        <ele>1507.13</ele>
        <time>2023-04-28T12:07:29.356Z</time>
      </trkpt>
      <trkpt lat="42.61125" lon="2.16624">
        <ele>1506.15</ele>
        <time>2023-04-28T12:07:39.696Z</time>
      </trkpt>
      <trkpt lat="42.61123" lon="2.16624">
        <ele>1506.13</ele>
        <time>2023-04-28T12:07:50.766Z</time>
      </trkpt>
      <trkpt lat="42.61127" lon="2.16624">
        <ele>1506.2</ele>
        <time>2023-04-28T12:08:01.190Z</time>
      </trkpt>
      <trkpt lat="42.6113" lon="2.16624">
        <ele>1506.88</ele>
        <time>2023-04-28T12:08:11.646Z</time>
      </trkpt>
      <trkpt lat="42.61142" lon="2.16625">
        <ele>1507.07</ele>
        <time>2023-04-28T12:08:21.646Z</time>
      </trkpt>
      <trkpt lat="42.61155" lon="2.16626">
        <ele>1506.9</ele>
        <time>2023-04-28T12:08:31.986Z</time>
      </trkpt>
      <trkpt lat="42.61166" lon="2.16625">
        <ele>1507.19</ele>
        <time>2023-04-28T12:08:42.432Z</time>
      </trkpt>
      <trkpt lat="42.61178" lon="2.16623">
        <ele>1508.14</ele>
        <time>2023-04-28T12:08:52.826Z</time>
      </trkpt>
      <trkpt lat="42.6119" lon="2.1662">
        <ele>1510.14</ele>
        <time>2023-04-28T12:09:03.266Z</time>
      </trkpt>
      <trkpt lat="42.61201" lon="2.16618">
        <ele>1511.14</ele>
        <time>2023-04-28T12:09:13.685Z</time>
      </trkpt>
      <trkpt lat="42.61212" lon="2.16614">
        <ele>1511.14</ele>
        <time>2023-04-28T12:09:24.168Z</time>
      </trkpt>
      <trkpt lat="42.61222" lon="2.1661">
        <ele>1511.14</ele>
        <time>2023-04-28T12:09:34.487Z</time>
      </trkpt>
      <trkpt lat="42.61232" lon="2.16605">
        <ele>1512.14</ele>
        <time>2023-04-28T12:09:44.865Z</time>
      </trkpt>
      <trkpt lat="42.61243" lon="2.166">
        <ele>1512.14</ele>
        <time>2023-04-28T12:09:55.235Z</time>
      </trkpt>
      <trkpt lat="42.61251" lon="2.16594">
        <ele>1513.14</ele>
        <time>2023-04-28T12:10:05.486Z</time>
      </trkpt>
      <trkpt lat="42.61259" lon="2.16585">
        <ele>1515.89</ele>
        <time>2023-04-28T12:10:15.826Z</time>
      </trkpt>
      <trkpt lat="42.61268" lon="2.16576">
        <ele>1516.89</ele>
        <time>2023-04-28T12:10:26.246Z</time>
      </trkpt>
      <trkpt lat="42.61275" lon="2.16568">
        <ele>1518.14</ele>
        <time>2023-04-28T12:10:36.726Z</time>
      </trkpt>
      <trkpt lat="42.61283" lon="2.16557">
        <ele>1519.14</ele>
        <time>2023-04-28T12:10:47.226Z</time>
      </trkpt>
      <trkpt lat="42.61292" lon="2.16549">
        <ele>1520.14</ele>
        <time>2023-04-28T12:10:57.706Z</time>
      </trkpt>
      <trkpt lat="42.613" lon="2.16539">
        <ele>1521.07</ele>
        <time>2023-04-28T12:11:08.711Z</time>
      </trkpt>
      <trkpt lat="42.61309" lon="2.1653">
        <ele>1521.14</ele>
        <time>2023-04-28T12:11:19.771Z</time>
      </trkpt>
      <trkpt lat="42.61319" lon="2.16523">
        <ele>1522.14</ele>
        <time>2023-04-28T12:11:30.253Z</time>
      </trkpt>
      <trkpt lat="42.61328" lon="2.16516">
        <ele>1522.89</ele>
        <time>2023-04-28T12:11:40.347Z</time>
      </trkpt>
      <trkpt lat="42.61339" lon="2.1651">
        <ele>1522.37</ele>
        <time>2023-04-28T12:11:50.758Z</time>
      </trkpt>
      <trkpt lat="42.61348" lon="2.16506">
        <ele>1523.12</ele>
        <time>2023-04-28T12:12:01.237Z</time>
      </trkpt>
      <trkpt lat="42.61358" lon="2.16501">
        <ele>1524.14</ele>
        <time>2023-04-28T12:12:11.656Z</time>
      </trkpt>
      <trkpt lat="42.61368" lon="2.16495">
        <ele>1525.14</ele>
        <time>2023-04-28T12:12:22.186Z</time>
      </trkpt>
      <trkpt lat="42.61378" lon="2.16488">
        <ele>1525.14</ele>
        <time>2023-04-28T12:12:32.531Z</time>
      </trkpt>
      <trkpt lat="42.61387" lon="2.1648">
        <ele>1526.14</ele>
        <time>2023-04-28T12:12:43.006Z</time>
      </trkpt>
      <trkpt lat="42.61397" lon="2.16472">
        <ele>1525.14</ele>
        <time>2023-04-28T12:12:53.041Z</time>
      </trkpt>
      <trkpt lat="42.61408" lon="2.16465">
        <ele>1526.14</ele>
        <time>2023-04-28T12:13:03.456Z</time>
      </trkpt>
      <trkpt lat="42.61418" lon="2.16458">
        <ele>1525.15</ele>
        <time>2023-04-28T12:13:13.976Z</time>
      </trkpt>
      <trkpt lat="42.61424" lon="2.16446">
        <ele>1527.14</ele>
        <time>2023-04-28T12:13:24.376Z</time>
      </trkpt>
      <trkpt lat="42.61431" lon="2.16436">
        <ele>1528.13</ele>
        <time>2023-04-28T12:13:34.736Z</time>
      </trkpt>
      <trkpt lat="42.61439" lon="2.16431">
        <ele>1528.14</ele>
        <time>2023-04-28T12:13:45.067Z</time>
      </trkpt>
      <trkpt lat="42.61448" lon="2.16423">
        <ele>1529.14</ele>
        <time>2023-04-28T12:13:55.626Z</time>
      </trkpt>
      <trkpt lat="42.61455" lon="2.16412">
        <ele>1531.12</ele>
        <time>2023-04-28T12:14:05.926Z</time>
      </trkpt>
      <trkpt lat="42.61461" lon="2.164">
        <ele>1531.14</ele>
        <time>2023-04-28T12:14:16.851Z</time>
      </trkpt>
      <trkpt lat="42.61461" lon="2.16398">
        <ele>1531.14</ele>
        <time>2023-04-28T12:14:27.886Z</time>
      </trkpt>
      <trkpt lat="42.61464" lon="2.16388">
        <ele>1531.14</ele>
        <time>2023-04-28T12:14:38.371Z</time>
      </trkpt>
      <trkpt lat="42.61464" lon="2.16382">
        <ele>1530.14</ele>
        <time>2023-04-28T12:14:48.656Z</time>
      </trkpt>
      <trkpt lat="42.61465" lon="2.16369">
        <ele>1529.39</ele>
        <time>2023-04-28T12:14:58.956Z</time>
      </trkpt>
      <trkpt lat="42.61461" lon="2.16356">
        <ele>1530.14</ele>
        <time>2023-04-28T12:15:09.336Z</time>
      </trkpt>
      <trkpt lat="42.61459" lon="2.1635">
        <ele>1532.13</ele>
        <time>2023-04-28T12:15:19.866Z</time>
      </trkpt>
      <trkpt lat="42.61451" lon="2.16348">
        <ele>1527.4</ele>
        <time>2023-04-28T12:15:30.196Z</time>
      </trkpt>
      <trkpt lat="42.61439" lon="2.16344">
        <ele>1525.07</ele>
        <time>2023-04-28T12:15:40.666Z</time>
      </trkpt>
      <trkpt lat="42.61433" lon="2.16332">
        <ele>1529.87</ele>
        <time>2023-04-28T12:15:51.076Z</time>
      </trkpt>
      <trkpt lat="42.61435" lon="2.16319">
        <ele>1533.13</ele>
        <time>2023-04-28T12:16:01.416Z</time>
      </trkpt>
      <trkpt lat="42.61436" lon="2.16307">
        <ele>1534.12</ele>
        <time>2023-04-28T12:16:11.936Z</time>
      </trkpt>
      <trkpt lat="42.61436" lon="2.16294">
        <ele>1534.89</ele>
        <time>2023-04-28T12:16:22.266Z</time>
      </trkpt>
      <trkpt lat="42.6144" lon="2.16284">
        <ele>1536.13</ele>
        <time>2023-04-28T12:16:32.386Z</time>
      </trkpt>
      <trkpt lat="42.61448" lon="2.16277">
        <ele>1537.13</ele>
        <time>2023-04-28T12:16:42.866Z</time>
      </trkpt>
      <trkpt lat="42.61455" lon="2.16268">
        <ele>1537.88</ele>
        <time>2023-04-28T12:16:53.925Z</time>
      </trkpt>
      <trkpt lat="42.61461" lon="2.16261">
        <ele>1538.13</ele>
        <time>2023-04-28T12:17:04.336Z</time>
      </trkpt>
      <trkpt lat="42.61469" lon="2.16258">
        <ele>1539.13</ele>
        <time>2023-04-28T12:17:14.701Z</time>
      </trkpt>
      <trkpt lat="42.61475" lon="2.16255">
        <ele>1541.07</ele>
        <time>2023-04-28T12:17:25.116Z</time>
      </trkpt>
      <trkpt lat="42.61478" lon="2.16251">
        <ele>1542.13</ele>
        <time>2023-04-28T12:17:35.606Z</time>
      </trkpt>
      <trkpt lat="42.61485" lon="2.16247">
        <ele>1543.13</ele>
        <time>2023-04-28T12:17:46.095Z</time>
      </trkpt>
      <trkpt lat="42.61493" lon="2.16242">
        <ele>1543.13</ele>
        <time>2023-04-28T12:17:56.485Z</time>
      </trkpt>
      <trkpt lat="42.615" lon="2.16239">
        <ele>1544.13</ele>
        <time>2023-04-28T12:18:06.966Z</time>
      </trkpt>
      <trkpt lat="42.61506" lon="2.16233">
        <ele>1547.13</ele>
        <time>2023-04-28T12:18:17.296Z</time>
      </trkpt>
      <trkpt lat="42.61512" lon="2.1623">
        <ele>1548.14</ele>
        <time>2023-04-28T12:18:27.709Z</time>
      </trkpt>
      <trkpt lat="42.61518" lon="2.16228">
        <ele>1549.13</ele>
        <time>2023-04-28T12:18:38.131Z</time>
      </trkpt>
      <trkpt lat="42.61522" lon="2.16224">
        <ele>1551.13</ele>
        <time>2023-04-28T12:18:48.587Z</time>
      </trkpt>
      <trkpt lat="42.61529" lon="2.16221">
        <ele>1552.13</ele>
        <time>2023-04-28T12:18:59.086Z</time>
      </trkpt>
      <trkpt lat="42.61537" lon="2.1622">
        <ele>1553.07</ele>
        <time>2023-04-28T12:19:09.526Z</time>
      </trkpt>
      <trkpt lat="42.61544" lon="2.1622">
        <ele>1555.13</ele>
        <time>2023-04-28T12:19:19.946Z</time>
      </trkpt>
      <trkpt lat="42.61551" lon="2.16217">
        <ele>1555.12</ele>
        <time>2023-04-28T12:19:30.436Z</time>
      </trkpt>
      <trkpt lat="42.61557" lon="2.16213">
        <ele>1555.14</ele>
        <time>2023-04-28T12:19:40.536Z</time>
      </trkpt>
      <trkpt lat="42.61564" lon="2.16208">
        <ele>1557.13</ele>
        <time>2023-04-28T12:19:50.952Z</time>
      </trkpt>
      <trkpt lat="42.6157" lon="2.16204">
        <ele>1558.2</ele>
        <time>2023-04-28T12:20:01.516Z</time>
      </trkpt>
      <trkpt lat="42.61569" lon="2.16193">
        <ele>1561.12</ele>
        <time>2023-04-28T12:20:12.026Z</time>
      </trkpt>
      <trkpt lat="42.61568" lon="2.16182">
        <ele>1563.13</ele>
        <time>2023-04-28T12:20:22.436Z</time>
      </trkpt>
      <trkpt lat="42.61574" lon="2.16179">
        <ele>1563.13</ele>
        <time>2023-04-28T12:20:32.976Z</time>
      </trkpt>
      <trkpt lat="42.61578" lon="2.16178">
        <ele>1565.13</ele>
        <time>2023-04-28T12:20:43.456Z</time>
      </trkpt>
      <trkpt lat="42.61583" lon="2.16177">
        <ele>1567.13</ele>
        <time>2023-04-28T12:20:53.956Z</time>
      </trkpt>
      <trkpt lat="42.61587" lon="2.16172">
        <ele>1569.88</ele>
        <time>2023-04-28T12:21:04.485Z</time>
      </trkpt>
      <trkpt lat="42.61592" lon="2.16167">
        <ele>1571.13</ele>
        <time>2023-04-28T12:21:14.932Z</time>
      </trkpt>
      <trkpt lat="42.61599" lon="2.1616">
        <ele>1571.13</ele>
        <time>2023-04-28T12:21:25.336Z</time>
      </trkpt>
      <trkpt lat="42.616" lon="2.1615">
        <ele>1573.13</ele>
        <time>2023-04-28T12:21:35.836Z</time>
      </trkpt>
      <trkpt lat="42.61603" lon="2.16145">
        <ele>1575.07</ele>
        <time>2023-04-28T12:21:46.286Z</time>
      </trkpt>
      <trkpt lat="42.61609" lon="2.16137">
        <ele>1576.12</ele>
        <time>2023-04-28T12:21:56.816Z</time>
      </trkpt>
      <trkpt lat="42.61617" lon="2.16137">
        <ele>1577.13</ele>
        <time>2023-04-28T12:22:07.855Z</time>
      </trkpt>
      <trkpt lat="42.61624" lon="2.16136">
        <ele>1577.13</ele>
        <time>2023-04-28T12:22:18.776Z</time>
      </trkpt>
      <trkpt lat="42.61632" lon="2.16136">
        <ele>1579.07</ele>
        <time>2023-04-28T12:22:29.715Z</time>
      </trkpt>
      <trkpt lat="42.6164" lon="2.16135">
        <ele>1579.2</ele>
        <time>2023-04-28T12:22:40.196Z</time>
      </trkpt>
      <trkpt lat="42.61647" lon="2.16138">
        <ele>1581.07</ele>
        <time>2023-04-28T12:22:50.637Z</time>
      </trkpt>
      <trkpt lat="42.61655" lon="2.16141">
        <ele>1582.89</ele>
        <time>2023-04-28T12:23:01.026Z</time>
      </trkpt>
      <trkpt lat="42.61663" lon="2.16144">
        <ele>1582.2</ele>
        <time>2023-04-28T12:23:11.475Z</time>
      </trkpt>
      <trkpt lat="42.61671" lon="2.1615">
        <ele>1584.14</ele>
        <time>2023-04-28T12:23:21.936Z</time>
      </trkpt>
      <trkpt lat="42.61678" lon="2.16155">
        <ele>1585.14</ele>
        <time>2023-04-28T12:23:32.476Z</time>
      </trkpt>
      <trkpt lat="42.61684" lon="2.16158">
        <ele>1586.13</ele>
        <time>2023-04-28T12:23:42.886Z</time>
      </trkpt>
      <trkpt lat="42.61693" lon="2.16158">
        <ele>1586.18</ele>
        <time>2023-04-28T12:23:53.366Z</time>
      </trkpt>
      <trkpt lat="42.61697" lon="2.16158">
        <ele>1588.13</ele>
        <time>2023-04-28T12:24:03.845Z</time>
      </trkpt>
      <trkpt lat="42.61705" lon="2.16156">
        <ele>1591.07</ele>
        <time>2023-04-28T12:24:14.825Z</time>
      </trkpt>
      <trkpt lat="42.61712" lon="2.16155">
        <ele>1592.07</ele>
        <time>2023-04-28T12:24:25.786Z</time>
      </trkpt>
      <trkpt lat="42.61716" lon="2.16154">
        <ele>1592.39</ele>
        <time>2023-04-28T12:24:36.216Z</time>
      </trkpt>
      <trkpt lat="42.61722" lon="2.16153">
        <ele>1592.14</ele>
        <time>2023-04-28T12:24:46.776Z</time>
      </trkpt>
      <trkpt lat="42.61728" lon="2.16154">
        <ele>1595.13</ele>
        <time>2023-04-28T12:24:57.296Z</time>
      </trkpt>
      <trkpt lat="42.61732" lon="2.16156">
        <ele>1596.14</ele>
        <time>2023-04-28T12:25:07.896Z</time>
      </trkpt>
      <trkpt lat="42.61736" lon="2.16157">
        <ele>1596.14</ele>
        <time>2023-04-28T12:25:18.867Z</time>
      </trkpt>
      <trkpt lat="42.61739" lon="2.16158">
        <ele>1595.14</ele>
        <time>2023-04-28T12:25:29.966Z</time>
      </trkpt>
      <trkpt lat="42.61744" lon="2.1616">
        <ele>1598.11</ele>
        <time>2023-04-28T12:25:40.336Z</time>
      </trkpt>
      <trkpt lat="42.61747" lon="2.16153">
        <ele>1598.12</ele>
        <time>2023-04-28T12:25:50.856Z</time>
      </trkpt>
      <trkpt lat="42.61746" lon="2.16146">
        <ele>1600.14</ele>
        <time>2023-04-28T12:26:01.146Z</time>
      </trkpt>
      <trkpt lat="42.61745" lon="2.16138">
        <ele>1603.07</ele>
        <time>2023-04-28T12:26:11.616Z</time>
      </trkpt>
      <trkpt lat="42.61743" lon="2.16127">
        <ele>1604.14</ele>
        <time>2023-04-28T12:26:21.970Z</time>
      </trkpt>
      <trkpt lat="42.61742" lon="2.16118">
        <ele>1606.13</ele>
        <time>2023-04-28T12:26:32.347Z</time>
      </trkpt>
      <trkpt lat="42.61741" lon="2.16109">
        <ele>1608.13</ele>
        <time>2023-04-28T12:26:42.875Z</time>
      </trkpt>
      <trkpt lat="42.61741" lon="2.16104">
        <ele>1609.14</ele>
        <time>2023-04-28T12:26:53.356Z</time>
      </trkpt>
      <trkpt lat="42.6174" lon="2.16097">
        <ele>1610.14</ele>
        <time>2023-04-28T12:27:03.856Z</time>
      </trkpt>
      <trkpt lat="42.61739" lon="2.16096">
        <ele>1609.14</ele>
        <time>2023-04-28T12:27:14.806Z</time>
      </trkpt>
      <trkpt lat="42.61739" lon="2.16097">
        <ele>1609.14</ele>
        <time>2023-04-28T12:27:45.636Z</time>
      </trkpt>
      <trkpt lat="42.61739" lon="2.16096">
        <ele>1608.2</ele>
        <time>2023-04-28T12:30:20.190Z</time>
      </trkpt>
      <trkpt lat="42.61738" lon="2.16095">
        <ele>1609.14</ele>
        <time>2023-04-28T12:30:30.616Z</time>
      </trkpt>
      <trkpt lat="42.6174" lon="2.16094">
        <ele>1610.15</ele>
        <time>2023-04-28T12:31:13.836Z</time>
      </trkpt>
      <trkpt lat="42.61741" lon="2.16092">
        <ele>1609.32</ele>
        <time>2023-04-28T12:31:24.756Z</time>
      </trkpt>
      <trkpt lat="42.61739" lon="2.16093">
        <ele>1608.14</ele>
        <time>2023-04-28T12:31:34.954Z</time>
      </trkpt>
      <trkpt lat="42.61739" lon="2.16092">
        <ele>1608.14</ele>
        <time>2023-04-28T12:31:45.964Z</time>
      </trkpt>
      <trkpt lat="42.61738" lon="2.16093">
        <ele>1609.07</ele>
        <time>2023-04-28T12:31:57.943Z</time>
      </trkpt>
      <trkpt lat="42.61735" lon="2.16084">
        <ele>1611.14</ele>
        <time>2023-04-28T12:32:07.966Z</time>
      </trkpt>
      <trkpt lat="42.61735" lon="2.16073">
        <ele>1612.12</ele>
        <time>2023-04-28T12:32:17.996Z</time>
      </trkpt>
      <trkpt lat="42.61733" lon="2.16063">
        <ele>1612.14</ele>
        <time>2023-04-28T12:32:28.476Z</time>
      </trkpt>
      <trkpt lat="42.61734" lon="2.16051">
        <ele>1613.14</ele>
        <time>2023-04-28T12:32:38.897Z</time>
      </trkpt>
      <trkpt lat="42.61732" lon="2.1604">
        <ele>1614.32</ele>
        <time>2023-04-28T12:32:49.256Z</time>
      </trkpt>
      <trkpt lat="42.6173" lon="2.1603">
        <ele>1615.88</ele>
        <time>2023-04-28T12:32:59.536Z</time>
      </trkpt>
      <trkpt lat="42.61728" lon="2.16021">
        <ele>1616.88</ele>
        <time>2023-04-28T12:33:09.576Z</time>
      </trkpt>
      <trkpt lat="42.61727" lon="2.16012">
        <ele>1619.13</ele>
        <time>2023-04-28T12:33:20.586Z</time>
      </trkpt>
      <trkpt lat="42.61724" lon="2.16006">
        <ele>1619.88</ele>
        <time>2023-04-28T12:33:30.948Z</time>
      </trkpt>
      <trkpt lat="42.61721" lon="2.15997">
        <ele>1621.87</ele>
        <time>2023-04-28T12:33:41.925Z</time>
      </trkpt>
      <trkpt lat="42.6172" lon="2.15987">
        <ele>1622.18</ele>
        <time>2023-04-28T12:33:52.311Z</time>
      </trkpt>
      <trkpt lat="42.6172" lon="2.15977">
        <ele>1624.13</ele>
        <time>2023-04-28T12:34:02.796Z</time>
      </trkpt>
      <trkpt lat="42.61722" lon="2.15971">
        <ele>1625.13</ele>
        <time>2023-04-28T12:34:13.775Z</time>
      </trkpt>
      <trkpt lat="42.61724" lon="2.15966">
        <ele>1627.13</ele>
        <time>2023-04-28T12:34:24.215Z</time>
      </trkpt>
      <trkpt lat="42.61728" lon="2.15962">
        <ele>1630.12</ele>
        <time>2023-04-28T12:34:34.716Z</time>
      </trkpt>
      <trkpt lat="42.61732" lon="2.15957">
        <ele>1631.13</ele>
        <time>2023-04-28T12:34:45.125Z</time>
      </trkpt>
      <trkpt lat="42.61736" lon="2.1595">
        <ele>1633.13</ele>
        <time>2023-04-28T12:34:55.566Z</time>
      </trkpt>
      <trkpt lat="42.61739" lon="2.15944">
        <ele>1634.13</ele>
        <time>2023-04-28T12:35:05.947Z</time>
      </trkpt>
      <trkpt lat="42.61744" lon="2.15936">
        <ele>1635.13</ele>
        <time>2023-04-28T12:35:15.966Z</time>
      </trkpt>
      <trkpt lat="42.6175" lon="2.15926">
        <ele>1636.13</ele>
        <time>2023-04-28T12:35:26.266Z</time>
      </trkpt>
      <trkpt lat="42.61755" lon="2.15915">
        <ele>1638.12</ele>
        <time>2023-04-28T12:35:36.566Z</time>
      </trkpt>
      <trkpt lat="42.61759" lon="2.15905">
        <ele>1639.13</ele>
        <time>2023-04-28T12:35:46.666Z</time>
      </trkpt>
      <trkpt lat="42.61762" lon="2.15894">
        <ele>1639.38</ele>
        <time>2023-04-28T12:35:57.145Z</time>
      </trkpt>
      <trkpt lat="42.61763" lon="2.1589">
        <ele>1640.13</ele>
        <time>2023-04-28T12:36:07.571Z</time>
      </trkpt>
      <trkpt lat="42.61768" lon="2.15873">
        <ele>1640.13</ele>
        <time>2023-04-28T12:36:18.545Z</time>
      </trkpt>
      <trkpt lat="42.61772" lon="2.15861">
        <ele>1639.13</ele>
        <time>2023-04-28T12:36:28.866Z</time>
      </trkpt>
      <trkpt lat="42.61774" lon="2.15849">
        <ele>1639.94</ele>
        <time>2023-04-28T12:36:39.796Z</time>
      </trkpt>
      <trkpt lat="42.61773" lon="2.1585">
        <ele>1639.13</ele>
        <time>2023-04-28T12:36:52.556Z</time>
      </trkpt>
      <trkpt lat="42.61774" lon="2.15851">
        <ele>1639.13</ele>
        <time>2023-04-28T12:37:02.927Z</time>
      </trkpt>
      <trkpt lat="42.61774" lon="2.1585">
        <ele>1637.9</ele>
        <time>2023-04-28T12:43:25.626Z</time>
      </trkpt>
      <trkpt lat="42.61773" lon="2.15849">
        <ele>1638.13</ele>
        <time>2023-04-28T12:43:36.656Z</time>
      </trkpt>
      <trkpt lat="42.61774" lon="2.15849">
        <ele>1637.38</ele>
        <time>2023-04-28T12:43:46.956Z</time>
      </trkpt>
      <trkpt lat="42.61781" lon="2.15838">
        <ele>1639.07</ele>
        <time>2023-04-28T12:43:57.276Z</time>
      </trkpt>
      <trkpt lat="42.61783" lon="2.15832">
        <ele>1639.13</ele>
        <time>2023-04-28T12:44:07.656Z</time>
      </trkpt>
      <trkpt lat="42.61788" lon="2.15821">
        <ele>1639.13</ele>
        <time>2023-04-28T12:44:17.669Z</time>
      </trkpt>
      <trkpt lat="42.61794" lon="2.15809">
        <ele>1640.13</ele>
        <time>2023-04-28T12:44:28.186Z</time>
      </trkpt>
      <trkpt lat="42.61796" lon="2.15797">
        <ele>1641.13</ele>
        <time>2023-04-28T12:44:38.626Z</time>
      </trkpt>
      <trkpt lat="42.61794" lon="2.15786">
        <ele>1642.13</ele>
        <time>2023-04-28T12:44:49.036Z</time>
      </trkpt>
      <trkpt lat="42.61793" lon="2.15774">
        <ele>1644.13</ele>
        <time>2023-04-28T12:44:59.936Z</time>
      </trkpt>
      <trkpt lat="42.61792" lon="2.15764">
        <ele>1644.13</ele>
        <time>2023-04-28T12:45:10.396Z</time>
      </trkpt>
      <trkpt lat="42.61793" lon="2.15755">
        <ele>1646.13</ele>
        <time>2023-04-28T12:45:20.886Z</time>
      </trkpt>
      <trkpt lat="42.61793" lon="2.15751">
        <ele>1647.88</ele>
        <time>2023-04-28T12:45:31.916Z</time>
      </trkpt>
      <trkpt lat="42.61794" lon="2.15743">
        <ele>1650.13</ele>
        <time>2023-04-28T12:45:42.416Z</time>
      </trkpt>
      <trkpt lat="42.61795" lon="2.15736">
        <ele>1652.86</ele>
        <time>2023-04-28T12:45:52.886Z</time>
      </trkpt>
      <trkpt lat="42.61795" lon="2.15723">
        <ele>1653.88</ele>
        <time>2023-04-28T12:46:03.316Z</time>
      </trkpt>
      <trkpt lat="42.61798" lon="2.15716">
        <ele>1657.86</ele>
        <time>2023-04-28T12:46:13.836Z</time>
      </trkpt>
      <trkpt lat="42.61801" lon="2.1571">
        <ele>1659.13</ele>
        <time>2023-04-28T12:46:23.886Z</time>
      </trkpt>
      <trkpt lat="42.61802" lon="2.15699">
        <ele>1660.07</ele>
        <time>2023-04-28T12:46:34.351Z</time>
      </trkpt>
      <trkpt lat="42.61806" lon="2.15692">
        <ele>1662.86</ele>
        <time>2023-04-28T12:46:44.795Z</time>
      </trkpt>
      <trkpt lat="42.61809" lon="2.15683">
        <ele>1665.13</ele>
        <time>2023-04-28T12:46:55.106Z</time>
      </trkpt>
      <trkpt lat="42.6181" lon="2.15671">
        <ele>1666.13</ele>
        <time>2023-04-28T12:47:05.566Z</time>
      </trkpt>
      <trkpt lat="42.61813" lon="2.1566">
        <ele>1668.12</ele>
        <time>2023-04-28T12:47:16.066Z</time>
      </trkpt>
      <trkpt lat="42.61816" lon="2.15652">
        <ele>1670.86</ele>
        <time>2023-04-28T12:47:26.946Z</time>
      </trkpt>
      <trkpt lat="42.61819" lon="2.15644">
        <ele>1673.13</ele>
        <time>2023-04-28T12:47:36.953Z</time>
      </trkpt>
      <trkpt lat="42.61823" lon="2.15631">
        <ele>1672.13</ele>
        <time>2023-04-28T12:47:46.953Z</time>
      </trkpt>
      <trkpt lat="42.61827" lon="2.15621">
        <ele>1671.93</ele>
        <time>2023-04-28T12:47:56.961Z</time>
      </trkpt>
      <trkpt lat="42.61831" lon="2.15611">
        <ele>1673.11</ele>
        <time>2023-04-28T12:48:07.948Z</time>
      </trkpt>
      <trkpt lat="42.61836" lon="2.15602">
        <ele>1673.32</ele>
        <time>2023-04-28T12:48:17.962Z</time>
      </trkpt>
      <trkpt lat="42.61839" lon="2.15593">
        <ele>1674.94</ele>
        <time>2023-04-28T12:48:28.952Z</time>
      </trkpt>
      <trkpt lat="42.61839" lon="2.15587">
        <ele>1677.88</ele>
        <time>2023-04-28T12:48:39.961Z</time>
      </trkpt>
      <trkpt lat="42.6184" lon="2.15585">
        <ele>1678.08</ele>
        <time>2023-04-28T12:48:49.965Z</time>
      </trkpt>
      <trkpt lat="42.61841" lon="2.15584">
        <ele>1676.19</ele>
        <time>2023-04-28T12:49:00.944Z</time>
      </trkpt>
      <trkpt lat="42.61842" lon="2.15582">
        <ele>1675.13</ele>
        <time>2023-04-28T12:49:11.939Z</time>
      </trkpt>
      <trkpt lat="42.61842" lon="2.1558">
        <ele>1674.13</ele>
        <time>2023-04-28T12:49:21.963Z</time>
      </trkpt>
      <trkpt lat="42.61841" lon="2.15581">
        <ele>1674.13</ele>
        <time>2023-04-28T12:49:32.957Z</time>
      </trkpt>
      <trkpt lat="42.61844" lon="2.15577">
        <ele>1674.13</ele>
        <time>2023-04-28T12:49:42.965Z</time>
      </trkpt>
      <trkpt lat="42.6185" lon="2.15568">
        <ele>1676.11</ele>
        <time>2023-04-28T12:49:53.954Z</time>
      </trkpt>
      <trkpt lat="42.61853" lon="2.1556">
        <ele>1678.11</ele>
        <time>2023-04-28T12:50:03.959Z</time>
      </trkpt>
      <trkpt lat="42.61856" lon="2.1555">
        <ele>1681.13</ele>
        <time>2023-04-28T12:50:14.952Z</time>
      </trkpt>
      <trkpt lat="42.61859" lon="2.15542">
        <ele>1684.06</ele>
        <time>2023-04-28T12:50:25.960Z</time>
      </trkpt>
      <trkpt lat="42.61862" lon="2.15534">
        <ele>1684.38</ele>
        <time>2023-04-28T12:50:36.956Z</time>
      </trkpt>
      <trkpt lat="42.61866" lon="2.15525">
        <ele>1686.13</ele>
        <time>2023-04-28T12:50:47.954Z</time>
      </trkpt>
      <trkpt lat="42.61871" lon="2.15514">
        <ele>1686.06</ele>
        <time>2023-04-28T12:50:58.953Z</time>
      </trkpt>
      <trkpt lat="42.61875" lon="2.15503">
        <ele>1688.81</ele>
        <time>2023-04-28T12:51:09.947Z</time>
      </trkpt>
      <trkpt lat="42.6188" lon="2.15493">
        <ele>1691.11</ele>
        <time>2023-04-28T12:51:20.947Z</time>
      </trkpt>
      <trkpt lat="42.61884" lon="2.15485">
        <ele>1692.17</ele>
        <time>2023-04-28T12:51:30.947Z</time>
      </trkpt>
      <trkpt lat="42.6189" lon="2.15474">
        <ele>1693.13</ele>
        <time>2023-04-28T12:51:40.954Z</time>
      </trkpt>
      <trkpt lat="42.61895" lon="2.15465">
        <ele>1696.11</ele>
        <time>2023-04-28T12:51:51.947Z</time>
      </trkpt>
      <trkpt lat="42.61902" lon="2.15457">
        <ele>1697.13</ele>
        <time>2023-04-28T12:52:02.950Z</time>
      </trkpt>
      <trkpt lat="42.61907" lon="2.15447">
        <ele>1696.38</ele>
        <time>2023-04-28T12:52:12.950Z</time>
      </trkpt>
      <trkpt lat="42.61911" lon="2.15437">
        <ele>1697.13</ele>
        <time>2023-04-28T12:52:22.954Z</time>
      </trkpt>
      <trkpt lat="42.61916" lon="2.15428">
        <ele>1700.12</ele>
        <time>2023-04-28T12:52:33.067Z</time>
      </trkpt>
      <trkpt lat="42.61921" lon="2.15419">
        <ele>1700.13</ele>
        <time>2023-04-28T12:52:43.537Z</time>
      </trkpt>
      <trkpt lat="42.61924" lon="2.15411">
        <ele>1701.36</ele>
        <time>2023-04-28T12:52:53.958Z</time>
      </trkpt>
      <trkpt lat="42.6193" lon="2.15403">
        <ele>1703.12</ele>
        <time>2023-04-28T12:53:04.296Z</time>
      </trkpt>
      <trkpt lat="42.61936" lon="2.15392">
        <ele>1703.88</ele>
        <time>2023-04-28T12:53:14.767Z</time>
      </trkpt>
      <trkpt lat="42.6194" lon="2.15381">
        <ele>1704.13</ele>
        <time>2023-04-28T12:53:25.247Z</time>
      </trkpt>
      <trkpt lat="42.61943" lon="2.15372">
        <ele>1706.11</ele>
        <time>2023-04-28T12:53:35.757Z</time>
      </trkpt>
      <trkpt lat="42.61949" lon="2.15361">
        <ele>1708.37</ele>
        <time>2023-04-28T12:53:46.147Z</time>
      </trkpt>
      <trkpt lat="42.61954" lon="2.15353">
        <ele>1710.12</ele>
        <time>2023-04-28T12:53:56.237Z</time>
      </trkpt>
      <trkpt lat="42.6196" lon="2.15343">
        <ele>1712.88</ele>
        <time>2023-04-28T12:54:06.576Z</time>
      </trkpt>
      <trkpt lat="42.61965" lon="2.15334">
        <ele>1714.87</ele>
        <time>2023-04-28T12:54:16.916Z</time>
      </trkpt>
      <trkpt lat="42.61972" lon="2.15318">
        <ele>1713.12</ele>
        <time>2023-04-28T12:54:27.358Z</time>
      </trkpt>
      <trkpt lat="42.61974" lon="2.15308">
        <ele>1713.12</ele>
        <time>2023-04-28T12:54:37.617Z</time>
      </trkpt>
      <trkpt lat="42.61979" lon="2.15298">
        <ele>1714.06</ele>
        <time>2023-04-28T12:54:48.126Z</time>
      </trkpt>
      <trkpt lat="42.61985" lon="2.15285">
        <ele>1715.12</ele>
        <time>2023-04-28T12:54:58.147Z</time>
      </trkpt>
      <trkpt lat="42.61989" lon="2.15272">
        <ele>1715.12</ele>
        <time>2023-04-28T12:55:08.457Z</time>
      </trkpt>
      <trkpt lat="42.61994" lon="2.15262">
        <ele>1718.11</ele>
        <time>2023-04-28T12:55:18.841Z</time>
      </trkpt>
      <trkpt lat="42.62" lon="2.15251">
        <ele>1719.88</ele>
        <time>2023-04-28T12:55:29.297Z</time>
      </trkpt>
      <trkpt lat="42.62007" lon="2.15243">
        <ele>1723.12</ele>
        <time>2023-04-28T12:55:39.297Z</time>
      </trkpt>
      <trkpt lat="42.62013" lon="2.15232">
        <ele>1723.12</ele>
        <time>2023-04-28T12:55:49.697Z</time>
      </trkpt>
      <trkpt lat="42.62018" lon="2.1522">
        <ele>1725.12</ele>
        <time>2023-04-28T12:55:59.945Z</time>
      </trkpt>
      <trkpt lat="42.62025" lon="2.15209">
        <ele>1725.12</ele>
        <time>2023-04-28T12:56:10.446Z</time>
      </trkpt>
      <trkpt lat="42.62029" lon="2.15198">
        <ele>1725.87</ele>
        <time>2023-04-28T12:56:20.947Z</time>
      </trkpt>
      <trkpt lat="42.62037" lon="2.15188">
        <ele>1724.12</ele>
        <time>2023-04-28T12:56:31.408Z</time>
      </trkpt>
      <trkpt lat="42.62046" lon="2.1518">
        <ele>1724.12</ele>
        <time>2023-04-28T12:56:41.517Z</time>
      </trkpt>
      <trkpt lat="42.62053" lon="2.15172">
        <ele>1724.87</ele>
        <time>2023-04-28T12:56:52.550Z</time>
      </trkpt>
      <trkpt lat="42.62062" lon="2.15164">
        <ele>1726.12</ele>
        <time>2023-04-28T12:57:02.953Z</time>
      </trkpt>
      <trkpt lat="42.62069" lon="2.15155">
        <ele>1728.11</ele>
        <time>2023-04-28T12:57:13.347Z</time>
      </trkpt>
      <trkpt lat="42.62073" lon="2.15153">
        <ele>1729.11</ele>
        <time>2023-04-28T12:57:23.626Z</time>
      </trkpt>
      <trkpt lat="42.62084" lon="2.15147">
        <ele>1731.94</ele>
        <time>2023-04-28T12:57:34.107Z</time>
      </trkpt>
      <trkpt lat="42.62094" lon="2.15139">
        <ele>1732.12</ele>
        <time>2023-04-28T12:57:44.607Z</time>
      </trkpt>
      <trkpt lat="42.62101" lon="2.15134">
        <ele>1732.87</ele>
        <time>2023-04-28T12:57:55.097Z</time>
      </trkpt>
      <trkpt lat="42.62108" lon="2.15127">
        <ele>1733.89</ele>
        <time>2023-04-28T12:58:05.447Z</time>
      </trkpt>
      <trkpt lat="42.62115" lon="2.1512">
        <ele>1735.87</ele>
        <time>2023-04-28T12:58:15.957Z</time>
      </trkpt>
      <trkpt lat="42.62123" lon="2.15115">
        <ele>1738.06</ele>
        <time>2023-04-28T12:58:26.947Z</time>
      </trkpt>
      <trkpt lat="42.62128" lon="2.15111">
        <ele>1740.12</ele>
        <time>2023-04-28T12:58:37.506Z</time>
      </trkpt>
      <trkpt lat="42.62135" lon="2.15108">
        <ele>1741.12</ele>
        <time>2023-04-28T12:58:47.947Z</time>
      </trkpt>
      <trkpt lat="42.62135" lon="2.15105">
        <ele>1741.12</ele>
        <time>2023-04-28T12:58:58.347Z</time>
      </trkpt>
      <trkpt lat="42.6214" lon="2.15101">
        <ele>1743.12</ele>
        <time>2023-04-28T12:59:08.797Z</time>
      </trkpt>
      <trkpt lat="42.62143" lon="2.15098">
        <ele>1744.12</ele>
        <time>2023-04-28T12:59:19.256Z</time>
      </trkpt>
      <trkpt lat="42.62147" lon="2.15093">
        <ele>1746.12</ele>
        <time>2023-04-28T12:59:29.613Z</time>
      </trkpt>
      <trkpt lat="42.62151" lon="2.15084">
        <ele>1747.12</ele>
        <time>2023-04-28T12:59:40.057Z</time>
      </trkpt>
      <trkpt lat="42.62153" lon="2.15078">
        <ele>1749.12</ele>
        <time>2023-04-28T12:59:50.476Z</time>
      </trkpt>
      <trkpt lat="42.62155" lon="2.15073">
        <ele>1750.12</ele>
        <time>2023-04-28T13:00:00.940Z</time>
      </trkpt>
      <trkpt lat="42.62158" lon="2.15068">
        <ele>1753.12</ele>
        <time>2023-04-28T13:00:11.347Z</time>
      </trkpt>
      <trkpt lat="42.6216" lon="2.15064">
        <ele>1756.06</ele>
        <time>2023-04-28T13:00:21.817Z</time>
      </trkpt>
      <trkpt lat="42.62164" lon="2.15055">
        <ele>1755.18</ele>
        <time>2023-04-28T13:00:32.306Z</time>
      </trkpt>
      <trkpt lat="42.6217" lon="2.15051">
        <ele>1758.06</ele>
        <time>2023-04-28T13:00:42.796Z</time>
      </trkpt>
      <trkpt lat="42.62175" lon="2.15046">
        <ele>1760.12</ele>
        <time>2023-04-28T13:00:53.827Z</time>
      </trkpt>
      <trkpt lat="42.62178" lon="2.1504">
        <ele>1762.12</ele>
        <time>2023-04-28T13:01:04.188Z</time>
      </trkpt>
      <trkpt lat="42.62185" lon="2.15032">
        <ele>1764.12</ele>
        <time>2023-04-28T13:01:14.267Z</time>
      </trkpt>
      <trkpt lat="42.62191" lon="2.15027">
        <ele>1767.12</ele>
        <time>2023-04-28T13:01:24.746Z</time>
      </trkpt>
      <trkpt lat="42.62197" lon="2.15019">
        <ele>1769.12</ele>
        <time>2023-04-28T13:01:35.156Z</time>
      </trkpt>
      <trkpt lat="42.62201" lon="2.15007">
        <ele>1768.19</ele>
        <time>2023-04-28T13:01:45.287Z</time>
      </trkpt>
      <trkpt lat="42.62207" lon="2.14995">
        <ele>1769.12</ele>
        <time>2023-04-28T13:01:55.667Z</time>
      </trkpt>
      <trkpt lat="42.62215" lon="2.14988">
        <ele>1769.12</ele>
        <time>2023-04-28T13:02:06.177Z</time>
      </trkpt>
      <trkpt lat="42.62223" lon="2.14978">
        <ele>1770.12</ele>
        <time>2023-04-28T13:02:16.578Z</time>
      </trkpt>
      <trkpt lat="42.62227" lon="2.14967">
        <ele>1771.37</ele>
        <time>2023-04-28T13:02:27.097Z</time>
      </trkpt>
      <trkpt lat="42.62234" lon="2.14957">
        <ele>1772.14</ele>
        <time>2023-04-28T13:02:37.480Z</time>
      </trkpt>
      <trkpt lat="42.62239" lon="2.14946">
        <ele>1775.06</ele>
        <time>2023-04-28T13:02:47.856Z</time>
      </trkpt>
      <trkpt lat="42.62247" lon="2.14935">
        <ele>1775.12</ele>
        <time>2023-04-28T13:02:58.249Z</time>
      </trkpt>
      <trkpt lat="42.62253" lon="2.14924">
        <ele>1777.12</ele>
        <time>2023-04-28T13:03:08.617Z</time>
      </trkpt>
      <trkpt lat="42.62256" lon="2.14913">
        <ele>1777.11</ele>
        <time>2023-04-28T13:03:19.177Z</time>
      </trkpt>
      <trkpt lat="42.62256" lon="2.14912">
        <ele>1779.12</ele>
        <time>2023-04-28T13:03:32.953Z</time>
      </trkpt>
      <trkpt lat="42.62256" lon="2.14908">
        <ele>1778.13</ele>
        <time>2023-04-28T13:03:43.607Z</time>
      </trkpt>
      <trkpt lat="42.62256" lon="2.14906">
        <ele>1778.12</ele>
        <time>2023-04-28T13:03:58.955Z</time>
      </trkpt>
      <trkpt lat="42.62258" lon="2.14901">
        <ele>1778.17</ele>
        <time>2023-04-28T13:04:09.499Z</time>
      </trkpt>
      <trkpt lat="42.62259" lon="2.14898">
        <ele>1777.37</ele>
        <time>2023-04-28T13:04:19.957Z</time>
      </trkpt>
      <trkpt lat="42.62258" lon="2.14902">
        <ele>1777.11</ele>
        <time>2023-04-28T13:04:29.957Z</time>
      </trkpt>
      <trkpt lat="42.62257" lon="2.14903">
        <ele>1775.12</ele>
        <time>2023-04-28T13:04:40.499Z</time>
      </trkpt>
      <trkpt lat="42.62257" lon="2.14904">
        <ele>1773.12</ele>
        <time>2023-04-28T13:05:10.952Z</time>
      </trkpt>
      <trkpt lat="42.62256" lon="2.14904">
        <ele>1773.12</ele>
        <time>2023-04-28T13:06:25.466Z</time>
      </trkpt>
      <trkpt lat="42.62256" lon="2.14903">
        <ele>1773.12</ele>
        <time>2023-04-28T13:31:56.951Z</time>
      </trkpt>
      <trkpt lat="42.62255" lon="2.14901">
        <ele>1772.87</ele>
        <time>2023-04-28T13:32:37.931Z</time>
      </trkpt>
      <trkpt lat="42.62255" lon="2.149">
        <ele>1776.09</ele>
        <time>2023-04-28T13:33:05.507Z</time>
      </trkpt>
      <trkpt lat="42.62261" lon="2.14896">
        <ele>1778.06</ele>
        <time>2023-04-28T13:33:15.836Z</time>
      </trkpt>
      <trkpt lat="42.62264" lon="2.14887">
        <ele>1779.13</ele>
        <time>2023-04-28T13:33:26.217Z</time>
      </trkpt>
      <trkpt lat="42.62266" lon="2.14884">
        <ele>1779.12</ele>
        <time>2023-04-28T13:33:36.657Z</time>
      </trkpt>
      <trkpt lat="42.62267" lon="2.14881">
        <ele>1779.12</ele>
        <time>2023-04-28T13:33:47.610Z</time>
      </trkpt>
      <trkpt lat="42.6227" lon="2.14866">
        <ele>1779.12</ele>
        <time>2023-04-28T13:33:58.136Z</time>
      </trkpt>
      <trkpt lat="42.62269" lon="2.14863">
        <ele>1779.12</ele>
        <time>2023-04-28T13:34:08.576Z</time>
      </trkpt>
      <trkpt lat="42.62266" lon="2.14856">
        <ele>1779.11</ele>
        <time>2023-04-28T13:34:18.955Z</time>
      </trkpt>
      <trkpt lat="42.62259" lon="2.14842">
        <ele>1777.37</ele>
        <time>2023-04-28T13:34:29.458Z</time>
      </trkpt>
      <trkpt lat="42.62255" lon="2.14833">
        <ele>1778.12</ele>
        <time>2023-04-28T13:34:39.777Z</time>
      </trkpt>
      <trkpt lat="42.62254" lon="2.14831">
        <ele>1780.1</ele>
        <time>2023-04-28T13:34:50.267Z</time>
      </trkpt>
      <trkpt lat="42.62246" lon="2.14817">
        <ele>1782.12</ele>
        <time>2023-04-28T13:35:00.717Z</time>
      </trkpt>
      <trkpt lat="42.62241" lon="2.14806">
        <ele>1781.12</ele>
        <time>2023-04-28T13:35:11.067Z</time>
      </trkpt>
      <trkpt lat="42.62234" lon="2.14797">
        <ele>1783.06</ele>
        <time>2023-04-28T13:35:21.518Z</time>
      </trkpt>
      <trkpt lat="42.62227" lon="2.1479">
        <ele>1784.87</ele>
        <time>2023-04-28T13:35:32.016Z</time>
      </trkpt>
      <trkpt lat="42.62217" lon="2.14792">
        <ele>1788.87</ele>
        <time>2023-04-28T13:35:42.457Z</time>
      </trkpt>
      <trkpt lat="42.62209" lon="2.14797">
        <ele>1790.12</ele>
        <time>2023-04-28T13:35:52.953Z</time>
      </trkpt>
      <trkpt lat="42.62201" lon="2.14804">
        <ele>1793.12</ele>
        <time>2023-04-28T13:36:03.388Z</time>
      </trkpt>
      <trkpt lat="42.62193" lon="2.14809">
        <ele>1794.12</ele>
        <time>2023-04-28T13:36:13.838Z</time>
      </trkpt>
      <trkpt lat="42.62187" lon="2.14816">
        <ele>1795.12</ele>
        <time>2023-04-28T13:36:24.307Z</time>
      </trkpt>
      <trkpt lat="42.62178" lon="2.14822">
        <ele>1795.13</ele>
        <time>2023-04-28T13:36:34.717Z</time>
      </trkpt>
      <trkpt lat="42.62171" lon="2.14829">
        <ele>1797.12</ele>
        <time>2023-04-28T13:36:45.157Z</time>
      </trkpt>
      <trkpt lat="42.62162" lon="2.14836">
        <ele>1798.13</ele>
        <time>2023-04-28T13:36:55.577Z</time>
      </trkpt>
      <trkpt lat="42.62156" lon="2.14841">
        <ele>1798.12</ele>
        <time>2023-04-28T13:37:06.077Z</time>
      </trkpt>
      <trkpt lat="42.62147" lon="2.14848">
        <ele>1799.11</ele>
        <time>2023-04-28T13:37:16.400Z</time>
      </trkpt>
      <trkpt lat="42.62139" lon="2.14857">
        <ele>1802.85</ele>
        <time>2023-04-28T13:37:26.927Z</time>
      </trkpt>
      <trkpt lat="42.62131" lon="2.14863">
        <ele>1805.12</ele>
        <time>2023-04-28T13:37:37.317Z</time>
      </trkpt>
      <trkpt lat="42.62125" lon="2.14872">
        <ele>1805.87</ele>
        <time>2023-04-28T13:37:47.747Z</time>
      </trkpt>
      <trkpt lat="42.62115" lon="2.14882">
        <ele>1806.18</ele>
        <time>2023-04-28T13:37:57.787Z</time>
      </trkpt>
      <trkpt lat="42.62106" lon="2.14889">
        <ele>1804.12</ele>
        <time>2023-04-28T13:38:08.327Z</time>
      </trkpt>
      <trkpt lat="42.621" lon="2.14891">
        <ele>1802.12</ele>
        <time>2023-04-28T13:38:18.837Z</time>
      </trkpt>
      <trkpt lat="42.62092" lon="2.1489">
        <ele>1803.17</ele>
        <time>2023-04-28T13:38:29.777Z</time>
      </trkpt>
      <trkpt lat="42.62089" lon="2.1488">
        <ele>1806.06</ele>
        <time>2023-04-28T13:38:40.201Z</time>
      </trkpt>
      <trkpt lat="42.62092" lon="2.1487">
        <ele>1808.1</ele>
        <time>2023-04-28T13:38:50.661Z</time>
      </trkpt>
      <trkpt lat="42.62094" lon="2.1486">
        <ele>1811.12</ele>
        <time>2023-04-28T13:39:01.036Z</time>
      </trkpt>
      <trkpt lat="42.62096" lon="2.14849">
        <ele>1815.06</ele>
        <time>2023-04-28T13:39:11.576Z</time>
      </trkpt>
      <trkpt lat="42.62098" lon="2.14837">
        <ele>1816.11</ele>
        <time>2023-04-28T13:39:21.587Z</time>
      </trkpt>
      <trkpt lat="42.62102" lon="2.14826">
        <ele>1817.12</ele>
        <time>2023-04-28T13:39:32.501Z</time>
      </trkpt>
      <trkpt lat="42.62104" lon="2.14813">
        <ele>1816.12</ele>
        <time>2023-04-28T13:39:42.947Z</time>
      </trkpt>
      <trkpt lat="42.62104" lon="2.14799">
        <ele>1817.13</ele>
        <time>2023-04-28T13:39:53.307Z</time>
      </trkpt>
      <trkpt lat="42.62106" lon="2.14787">
        <ele>1819.12</ele>
        <time>2023-04-28T13:40:03.771Z</time>
      </trkpt>
      <trkpt lat="42.62108" lon="2.14776">
        <ele>1819.12</ele>
        <time>2023-04-28T13:40:14.198Z</time>
      </trkpt>
      <trkpt lat="42.6211" lon="2.14763">
        <ele>1822.12</ele>
        <time>2023-04-28T13:40:24.647Z</time>
      </trkpt>
      <trkpt lat="42.62111" lon="2.14751">
        <ele>1824.05</ele>
        <time>2023-04-28T13:40:35.016Z</time>
      </trkpt>
      <trkpt lat="42.62114" lon="2.14736">
        <ele>1823.12</ele>
        <time>2023-04-28T13:40:45.397Z</time>
      </trkpt>
      <trkpt lat="42.62114" lon="2.14723">
        <ele>1824.12</ele>
        <time>2023-04-28T13:40:55.817Z</time>
      </trkpt>
      <trkpt lat="42.62115" lon="2.1471">
        <ele>1826.12</ele>
        <time>2023-04-28T13:41:06.278Z</time>
      </trkpt>
      <trkpt lat="42.62117" lon="2.14696">
        <ele>1827.05</ele>
        <time>2023-04-28T13:41:16.788Z</time>
      </trkpt>
      <trkpt lat="42.62116" lon="2.14687">
        <ele>1828.11</ele>
        <time>2023-04-28T13:41:26.837Z</time>
      </trkpt>
      <trkpt lat="42.62117" lon="2.14674">
        <ele>1829.11</ele>
        <time>2023-04-28T13:41:37.368Z</time>
      </trkpt>
      <trkpt lat="42.62115" lon="2.14659">
        <ele>1830.86</ele>
        <time>2023-04-28T13:41:47.927Z</time>
      </trkpt>
      <trkpt lat="42.62113" lon="2.14645">
        <ele>1830.11</ele>
        <time>2023-04-28T13:41:58.257Z</time>
      </trkpt>
      <trkpt lat="42.62109" lon="2.14633">
        <ele>1830.11</ele>
        <time>2023-04-28T13:42:08.676Z</time>
      </trkpt>
      <trkpt lat="42.62105" lon="2.14621">
        <ele>1831.11</ele>
        <time>2023-04-28T13:42:19.217Z</time>
      </trkpt>
      <trkpt lat="42.621" lon="2.1461">
        <ele>1832.32</ele>
        <time>2023-04-28T13:42:29.634Z</time>
      </trkpt>
      <trkpt lat="42.62094" lon="2.14599">
        <ele>1834.85</ele>
        <time>2023-04-28T13:42:40.127Z</time>
      </trkpt>
      <trkpt lat="42.62089" lon="2.14588">
        <ele>1836.05</ele>
        <time>2023-04-28T13:42:50.648Z</time>
      </trkpt>
      <trkpt lat="42.62082" lon="2.14577">
        <ele>1838.11</ele>
        <time>2023-04-28T13:43:01.157Z</time>
      </trkpt>
      <trkpt lat="42.62077" lon="2.14569">
        <ele>1839.11</ele>
        <time>2023-04-28T13:43:11.387Z</time>
      </trkpt>
      <trkpt lat="42.62069" lon="2.1456">
        <ele>1839.11</ele>
        <time>2023-04-28T13:43:21.896Z</time>
      </trkpt>
      <trkpt lat="42.62061" lon="2.14555">
        <ele>1839.11</ele>
        <time>2023-04-28T13:43:32.296Z</time>
      </trkpt>
      <trkpt lat="42.62057" lon="2.14554">
        <ele>1838.11</ele>
        <time>2023-04-28T13:43:42.817Z</time>
      </trkpt>
      <trkpt lat="42.62055" lon="2.14555">
        <ele>1838.11</ele>
        <time>2023-04-28T13:43:52.867Z</time>
      </trkpt>
      <trkpt lat="42.62054" lon="2.14554">
        <ele>1838.11</ele>
        <time>2023-04-28T13:44:03.837Z</time>
      </trkpt>
      <trkpt lat="42.62053" lon="2.14556">
        <ele>1837.11</ele>
        <time>2023-04-28T13:44:16.987Z</time>
      </trkpt>
      <trkpt lat="42.62052" lon="2.14556">
        <ele>1838.05</ele>
        <time>2023-04-28T14:07:22.959Z</time>
      </trkpt>
      <trkpt lat="42.62048" lon="2.14558">
        <ele>1839.11</ele>
        <time>2023-04-28T14:07:33.536Z</time>
      </trkpt>
      <trkpt lat="42.62044" lon="2.14558">
        <ele>1841.11</ele>
        <time>2023-04-28T14:07:43.581Z</time>
      </trkpt>
      <trkpt lat="42.6204" lon="2.14564">
        <ele>1841.11</ele>
        <time>2023-04-28T14:07:53.949Z</time>
      </trkpt>
      <trkpt lat="42.6203" lon="2.14569">
        <ele>1844.09</ele>
        <time>2023-04-28T14:08:04.017Z</time>
      </trkpt>
      <trkpt lat="42.62021" lon="2.14575">
        <ele>1846.11</ele>
        <time>2023-04-28T14:08:14.478Z</time>
      </trkpt>
      <trkpt lat="42.62013" lon="2.1458">
        <ele>1847.05</ele>
        <time>2023-04-28T14:08:24.487Z</time>
      </trkpt>
      <trkpt lat="42.62005" lon="2.14588">
        <ele>1846.11</ele>
        <time>2023-04-28T14:08:34.837Z</time>
      </trkpt>
      <trkpt lat="42.61997" lon="2.14593">
        <ele>1848.11</ele>
        <time>2023-04-28T14:08:45.267Z</time>
      </trkpt>
      <trkpt lat="42.61992" lon="2.14597">
        <ele>1849.86</ele>
        <time>2023-04-28T14:08:55.806Z</time>
      </trkpt>
      <trkpt lat="42.61983" lon="2.14605">
        <ele>1851.11</ele>
        <time>2023-04-28T14:09:06.871Z</time>
      </trkpt>
      <trkpt lat="42.61976" lon="2.1461">
        <ele>1854.09</ele>
        <time>2023-04-28T14:09:17.921Z</time>
      </trkpt>
      <trkpt lat="42.61975" lon="2.14611">
        <ele>1853.92</ele>
        <time>2023-04-28T14:09:58.952Z</time>
      </trkpt>
      <trkpt lat="42.61972" lon="2.14614">
        <ele>1854.11</ele>
        <time>2023-04-28T14:10:09.927Z</time>
      </trkpt>
      <trkpt lat="42.61971" lon="2.14616">
        <ele>1853.17</ele>
        <time>2023-04-28T14:10:30.942Z</time>
      </trkpt>
      <trkpt lat="42.61964" lon="2.14623">
        <ele>1855.11</ele>
        <time>2023-04-28T14:10:41.387Z</time>
      </trkpt>
      <trkpt lat="42.61957" lon="2.14629">
        <ele>1857.11</ele>
        <time>2023-04-28T14:10:51.847Z</time>
      </trkpt>
      <trkpt lat="42.61951" lon="2.14638">
        <ele>1857.11</ele>
        <time>2023-04-28T14:11:01.848Z</time>
      </trkpt>
      <trkpt lat="42.61946" lon="2.14646">
        <ele>1858.86</ele>
        <time>2023-04-28T14:11:11.877Z</time>
      </trkpt>
      <trkpt lat="42.61945" lon="2.14647">
        <ele>1859.11</ele>
        <time>2023-04-28T14:11:22.737Z</time>
      </trkpt>
      <trkpt lat="42.6194" lon="2.14651">
        <ele>1860.11</ele>
        <time>2023-04-28T14:11:33.197Z</time>
      </trkpt>
      <trkpt lat="42.61934" lon="2.14657">
        <ele>1861.11</ele>
        <time>2023-04-28T14:11:43.667Z</time>
      </trkpt>
      <trkpt lat="42.61927" lon="2.14664">
        <ele>1864.05</ele>
        <time>2023-04-28T14:11:54.719Z</time>
      </trkpt>
      <trkpt lat="42.61918" lon="2.1467">
        <ele>1865.09</ele>
        <time>2023-04-28T14:12:05.777Z</time>
      </trkpt>
      <trkpt lat="42.61911" lon="2.14673">
        <ele>1866.11</ele>
        <time>2023-04-28T14:12:16.877Z</time>
      </trkpt>
      <trkpt lat="42.61904" lon="2.14677">
        <ele>1865.11</ele>
        <time>2023-04-28T14:12:27.167Z</time>
      </trkpt>
      <trkpt lat="42.61895" lon="2.14682">
        <ele>1865.11</ele>
        <time>2023-04-28T14:12:37.557Z</time>
      </trkpt>
      <trkpt lat="42.61886" lon="2.14683">
        <ele>1865.11</ele>
        <time>2023-04-28T14:12:47.877Z</time>
      </trkpt>
      <trkpt lat="42.61884" lon="2.14683">
        <ele>1865.11</ele>
        <time>2023-04-28T14:12:58.947Z</time>
      </trkpt>
      <trkpt lat="42.61885" lon="2.14684">
        <ele>1863.13</ele>
        <time>2023-04-28T14:13:27.955Z</time>
      </trkpt>
      <trkpt lat="42.61885" lon="2.14685">
        <ele>1863.11</ele>
        <time>2023-04-28T14:16:13.936Z</time>
      </trkpt>
      <trkpt lat="42.61882" lon="2.14686">
        <ele>1863.05</ele>
        <time>2023-04-28T14:16:23.955Z</time>
      </trkpt>
      <trkpt lat="42.61881" lon="2.14688">
        <ele>1863.11</ele>
        <time>2023-04-28T14:16:34.949Z</time>
      </trkpt>
      <trkpt lat="42.61875" lon="2.1469">
        <ele>1864.05</ele>
        <time>2023-04-28T14:16:45.950Z</time>
      </trkpt>
      <trkpt lat="42.61867" lon="2.14693">
        <ele>1864.17</ele>
        <time>2023-04-28T14:16:55.956Z</time>
      </trkpt>
      <trkpt lat="42.61857" lon="2.14697">
        <ele>1865.11</ele>
        <time>2023-04-28T14:17:06.220Z</time>
      </trkpt>
      <trkpt lat="42.61846" lon="2.14704">
        <ele>1865.11</ele>
        <time>2023-04-28T14:17:16.781Z</time>
      </trkpt>
      <trkpt lat="42.61835" lon="2.14711">
        <ele>1866.11</ele>
        <time>2023-04-28T14:17:27.151Z</time>
      </trkpt>
      <trkpt lat="42.61824" lon="2.14718">
        <ele>1867.11</ele>
        <time>2023-04-28T14:17:37.561Z</time>
      </trkpt>
      <trkpt lat="42.61814" lon="2.14726">
        <ele>1868.11</ele>
        <time>2023-04-28T14:17:48.051Z</time>
      </trkpt>
      <trkpt lat="42.61809" lon="2.14728">
        <ele>1868.11</ele>
        <time>2023-04-28T14:17:58.491Z</time>
      </trkpt>
      <trkpt lat="42.61809" lon="2.14729">
        <ele>1867.11</ele>
        <time>2023-04-28T14:18:08.541Z</time>
      </trkpt>
      <trkpt lat="42.61802" lon="2.14736">
        <ele>1867.11</ele>
        <time>2023-04-28T14:18:18.961Z</time>
      </trkpt>
      <trkpt lat="42.6179" lon="2.14744">
        <ele>1867.11</ele>
        <time>2023-04-28T14:18:29.041Z</time>
      </trkpt>
      <trkpt lat="42.61778" lon="2.1475">
        <ele>1868.11</ele>
        <time>2023-04-28T14:18:39.492Z</time>
      </trkpt>
      <trkpt lat="42.61767" lon="2.14756">
        <ele>1870.11</ele>
        <time>2023-04-28T14:18:49.502Z</time>
      </trkpt>
      <trkpt lat="42.61756" lon="2.14762">
        <ele>1872.3</ele>
        <time>2023-04-28T14:18:59.721Z</time>
      </trkpt>
      <trkpt lat="42.61747" lon="2.14766">
        <ele>1874.11</ele>
        <time>2023-04-28T14:19:10.051Z</time>
      </trkpt>
      <trkpt lat="42.61735" lon="2.14771">
        <ele>1876.11</ele>
        <time>2023-04-28T14:19:20.471Z</time>
      </trkpt>
      <trkpt lat="42.61724" lon="2.14772">
        <ele>1879.09</ele>
        <time>2023-04-28T14:19:30.941Z</time>
      </trkpt>
      <trkpt lat="42.61712" lon="2.14773">
        <ele>1881.11</ele>
        <time>2023-04-28T14:19:41.401Z</time>
      </trkpt>
      <trkpt lat="42.61702" lon="2.14774">
        <ele>1883.11</ele>
        <time>2023-04-28T14:19:51.922Z</time>
      </trkpt>
      <trkpt lat="42.6169" lon="2.14777">
        <ele>1884.11</ele>
        <time>2023-04-28T14:20:02.202Z</time>
      </trkpt>
      <trkpt lat="42.61676" lon="2.14777">
        <ele>1884.17</ele>
        <time>2023-04-28T14:20:12.740Z</time>
      </trkpt>
      <trkpt lat="42.61661" lon="2.14774">
        <ele>1883.14</ele>
        <time>2023-04-28T14:20:23.251Z</time>
      </trkpt>
      <trkpt lat="42.61648" lon="2.14772">
        <ele>1883.11</ele>
        <time>2023-04-28T14:20:33.741Z</time>
      </trkpt>
      <trkpt lat="42.61637" lon="2.14763">
        <ele>1883.35</ele>
        <time>2023-04-28T14:20:43.956Z</time>
      </trkpt>
      <trkpt lat="42.61625" lon="2.14756">
        <ele>1881.12</ele>
        <time>2023-04-28T14:20:54.431Z</time>
      </trkpt>
      <trkpt lat="42.61614" lon="2.14755">
        <ele>1880.11</ele>
        <time>2023-04-28T14:21:04.681Z</time>
      </trkpt>
      <trkpt lat="42.61606" lon="2.14763">
        <ele>1883.04</ele>
        <time>2023-04-28T14:21:14.971Z</time>
      </trkpt>
      <trkpt lat="42.61592" lon="2.14767">
        <ele>1885.15</ele>
        <time>2023-04-28T14:21:25.421Z</time>
      </trkpt>
      <trkpt lat="42.61582" lon="2.14778">
        <ele>1886.12</ele>
        <time>2023-04-28T14:21:35.921Z</time>
      </trkpt>
      <trkpt lat="42.61571" lon="2.1479">
        <ele>1884.11</ele>
        <time>2023-04-28T14:21:46.430Z</time>
      </trkpt>
      <trkpt lat="42.61559" lon="2.14797">
        <ele>1882.17</ele>
        <time>2023-04-28T14:21:56.941Z</time>
      </trkpt>
      <trkpt lat="42.61548" lon="2.14802">
        <ele>1882.11</ele>
        <time>2023-04-28T14:22:07.451Z</time>
      </trkpt>
      <trkpt lat="42.61538" lon="2.14813">
        <ele>1881.11</ele>
        <time>2023-04-28T14:22:17.949Z</time>
      </trkpt>
      <trkpt lat="42.6153" lon="2.14828">
        <ele>1883.1</ele>
        <time>2023-04-28T14:22:28.481Z</time>
      </trkpt>
      <trkpt lat="42.61524" lon="2.14841">
        <ele>1885.11</ele>
        <time>2023-04-28T14:22:38.892Z</time>
      </trkpt>
      <trkpt lat="42.61517" lon="2.14857">
        <ele>1887.04</ele>
        <time>2023-04-28T14:22:49.411Z</time>
      </trkpt>
      <trkpt lat="42.61511" lon="2.14871">
        <ele>1886.11</ele>
        <time>2023-04-28T14:22:59.691Z</time>
      </trkpt>
      <trkpt lat="42.61507" lon="2.14888">
        <ele>1885.12</ele>
        <time>2023-04-28T14:23:10.120Z</time>
      </trkpt>
      <trkpt lat="42.61503" lon="2.14904">
        <ele>1885.17</ele>
        <time>2023-04-28T14:23:20.661Z</time>
      </trkpt>
      <trkpt lat="42.61495" lon="2.1492">
        <ele>1882.13</ele>
        <time>2023-04-28T14:23:31.098Z</time>
      </trkpt>
      <trkpt lat="42.61484" lon="2.14932">
        <ele>1877.11</ele>
        <time>2023-04-28T14:23:41.582Z</time>
      </trkpt>
      <trkpt lat="42.61472" lon="2.14944">
        <ele>1870.36</ele>
        <time>2023-04-28T14:23:52.051Z</time>
      </trkpt>
      <trkpt lat="42.61461" lon="2.14954">
        <ele>1869.11</ele>
        <time>2023-04-28T14:24:02.371Z</time>
      </trkpt>
      <trkpt lat="42.6145" lon="2.14963">
        <ele>1868.17</ele>
        <time>2023-04-28T14:24:12.551Z</time>
      </trkpt>
      <trkpt lat="42.61436" lon="2.14971">
        <ele>1867.09</ele>
        <time>2023-04-28T14:24:23.051Z</time>
      </trkpt>
      <trkpt lat="42.61425" lon="2.14977">
        <ele>1867.09</ele>
        <time>2023-04-28T14:24:33.461Z</time>
      </trkpt>
      <trkpt lat="42.61411" lon="2.14981">
        <ele>1866.11</ele>
        <time>2023-04-28T14:24:43.771Z</time>
      </trkpt>
      <trkpt lat="42.61397" lon="2.14981">
        <ele>1865.11</ele>
        <time>2023-04-28T14:24:54.201Z</time>
      </trkpt>
      <trkpt lat="42.61386" lon="2.14981">
        <ele>1866.11</ele>
        <time>2023-04-28T14:25:04.561Z</time>
      </trkpt>
      <trkpt lat="42.61378" lon="2.14982">
        <ele>1869.11</ele>
        <time>2023-04-28T14:25:15.001Z</time>
      </trkpt>
      <trkpt lat="42.61368" lon="2.14988">
        <ele>1872.09</ele>
        <time>2023-04-28T14:25:25.501Z</time>
      </trkpt>
      <trkpt lat="42.61354" lon="2.14993">
        <ele>1871.16</ele>
        <time>2023-04-28T14:25:35.551Z</time>
      </trkpt>
      <trkpt lat="42.61343" lon="2.14997">
        <ele>1871.11</ele>
        <time>2023-04-28T14:25:45.951Z</time>
      </trkpt>
      <trkpt lat="42.61333" lon="2.15002">
        <ele>1873.1</ele>
        <time>2023-04-28T14:25:56.441Z</time>
      </trkpt>
      <trkpt lat="42.61323" lon="2.15008">
        <ele>1873.17</ele>
        <time>2023-04-28T14:26:06.501Z</time>
      </trkpt>
      <trkpt lat="42.61312" lon="2.15014">
        <ele>1875.11</ele>
        <time>2023-04-28T14:26:16.951Z</time>
      </trkpt>
      <trkpt lat="42.61302" lon="2.15018">
        <ele>1876.11</ele>
        <time>2023-04-28T14:26:27.391Z</time>
      </trkpt>
      <trkpt lat="42.61289" lon="2.15019">
        <ele>1877.1</ele>
        <time>2023-04-28T14:26:37.741Z</time>
      </trkpt>
      <trkpt lat="42.61277" lon="2.15019">
        <ele>1878.09</ele>
        <time>2023-04-28T14:26:48.301Z</time>
      </trkpt>
      <trkpt lat="42.61266" lon="2.15019">
        <ele>1880.04</ele>
        <time>2023-04-28T14:26:58.751Z</time>
      </trkpt>
      <trkpt lat="42.61254" lon="2.15017">
        <ele>1880.1</ele>
        <time>2023-04-28T14:27:09.251Z</time>
      </trkpt>
      <trkpt lat="42.61242" lon="2.15016">
        <ele>1880.1</ele>
        <time>2023-04-28T14:27:19.772Z</time>
      </trkpt>
      <trkpt lat="42.61231" lon="2.15011">
        <ele>1880.1</ele>
        <time>2023-04-28T14:27:30.241Z</time>
      </trkpt>
      <trkpt lat="42.6123" lon="2.15011">
        <ele>1882.1</ele>
        <time>2023-04-28T14:27:41.331Z</time>
      </trkpt>
      <trkpt lat="42.61219" lon="2.15003">
        <ele>1883.1</ele>
        <time>2023-04-28T14:27:51.781Z</time>
      </trkpt>
      <trkpt lat="42.61208" lon="2.14997">
        <ele>1884.1</ele>
        <time>2023-04-28T14:28:02.181Z</time>
      </trkpt>
      <trkpt lat="42.61197" lon="2.14992">
        <ele>1885.04</ele>
        <time>2023-04-28T14:28:12.660Z</time>
      </trkpt>
      <trkpt lat="42.61187" lon="2.1499">
        <ele>1886.1</ele>
        <time>2023-04-28T14:28:23.031Z</time>
      </trkpt>
      <trkpt lat="42.61174" lon="2.14981">
        <ele>1886.1</ele>
        <time>2023-04-28T14:28:33.470Z</time>
      </trkpt>
      <trkpt lat="42.61163" lon="2.14973">
        <ele>1888.1</ele>
        <time>2023-04-28T14:28:43.801Z</time>
      </trkpt>
      <trkpt lat="42.61152" lon="2.14962">
        <ele>1888.1</ele>
        <time>2023-04-28T14:28:54.131Z</time>
      </trkpt>
      <trkpt lat="42.61139" lon="2.14955">
        <ele>1887.1</ele>
        <time>2023-04-28T14:29:04.341Z</time>
      </trkpt>
      <trkpt lat="42.61127" lon="2.14955">
        <ele>1887.09</ele>
        <time>2023-04-28T14:29:14.470Z</time>
      </trkpt>
      <trkpt lat="42.61115" lon="2.14955">
        <ele>1886.1</ele>
        <time>2023-04-28T14:29:24.641Z</time>
      </trkpt>
      <trkpt lat="42.61112" lon="2.14956">
        <ele>1884.1</ele>
        <time>2023-04-28T14:29:35.731Z</time>
      </trkpt>
      <trkpt lat="42.6111" lon="2.14957">
        <ele>1883.16</ele>
        <time>2023-04-28T14:30:52.956Z</time>
      </trkpt>
      <trkpt lat="42.61109" lon="2.14958">
        <ele>1883.22</ele>
        <time>2023-04-28T14:31:04.652Z</time>
      </trkpt>
      <trkpt lat="42.61109" lon="2.14956">
        <ele>1883.1</ele>
        <time>2023-04-28T14:31:14.911Z</time>
      </trkpt>
      <trkpt lat="42.61101" lon="2.14956">
        <ele>1884.1</ele>
        <time>2023-04-28T14:31:25.291Z</time>
      </trkpt>
      <trkpt lat="42.61088" lon="2.1496">
        <ele>1884.1</ele>
        <time>2023-04-28T14:31:35.630Z</time>
      </trkpt>
      <trkpt lat="42.61074" lon="2.14958">
        <ele>1883.1</ele>
        <time>2023-04-28T14:31:46.021Z</time>
      </trkpt>
      <trkpt lat="42.61061" lon="2.14959">
        <ele>1883.04</ele>
        <time>2023-04-28T14:31:56.431Z</time>
      </trkpt>
      <trkpt lat="42.61047" lon="2.14957">
        <ele>1881.1</ele>
        <time>2023-04-28T14:32:06.851Z</time>
      </trkpt>
      <trkpt lat="42.61035" lon="2.14962">
        <ele>1881.09</ele>
        <time>2023-04-28T14:32:17.341Z</time>
      </trkpt>
      <trkpt lat="42.61023" lon="2.14965">
        <ele>1880.16</ele>
        <time>2023-04-28T14:32:27.741Z</time>
      </trkpt>
      <trkpt lat="42.61011" lon="2.14966">
        <ele>1880.1</ele>
        <time>2023-04-28T14:32:38.151Z</time>
      </trkpt>
      <trkpt lat="42.60998" lon="2.14972">
        <ele>1880.08</ele>
        <time>2023-04-28T14:32:48.221Z</time>
      </trkpt>
      <trkpt lat="42.6099" lon="2.14978">
        <ele>1881.1</ele>
        <time>2023-04-28T14:32:58.581Z</time>
      </trkpt>
      <trkpt lat="42.60985" lon="2.14986">
        <ele>1881.08</ele>
        <time>2023-04-28T14:33:08.851Z</time>
      </trkpt>
      <trkpt lat="42.60978" lon="2.14993">
        <ele>1879.1</ele>
        <time>2023-04-28T14:33:19.051Z</time>
      </trkpt>
      <trkpt lat="42.60971" lon="2.15004">
        <ele>1878.1</ele>
        <time>2023-04-28T14:33:29.051Z</time>
      </trkpt>
      <trkpt lat="42.60964" lon="2.15016">
        <ele>1877.1</ele>
        <time>2023-04-28T14:33:39.521Z</time>
      </trkpt>
      <trkpt lat="42.60955" lon="2.15028">
        <ele>1876.1</ele>
        <time>2023-04-28T14:33:50.041Z</time>
      </trkpt>
      <trkpt lat="42.60945" lon="2.1504">
        <ele>1874.1</ele>
        <time>2023-04-28T14:34:00.461Z</time>
      </trkpt>
      <trkpt lat="42.60936" lon="2.15051">
        <ele>1872.16</ele>
        <time>2023-04-28T14:34:10.951Z</time>
      </trkpt>
      <trkpt lat="42.60923" lon="2.15057">
        <ele>1869.1</ele>
        <time>2023-04-28T14:34:21.411Z</time>
      </trkpt>
      <trkpt lat="42.60913" lon="2.15061">
        <ele>1869.1</ele>
        <time>2023-04-28T14:34:31.960Z</time>
      </trkpt>
      <trkpt lat="42.60914" lon="2.15059">
        <ele>1869.1</ele>
        <time>2023-04-28T14:34:42.490Z</time>
      </trkpt>
      <trkpt lat="42.60913" lon="2.15059">
        <ele>1868.11</ele>
        <time>2023-04-28T14:34:56.947Z</time>
      </trkpt>
      <trkpt lat="42.60905" lon="2.15058">
        <ele>1869.1</ele>
        <time>2023-04-28T14:35:07.121Z</time>
      </trkpt>
      <trkpt lat="42.60898" lon="2.15056">
        <ele>1870.04</ele>
        <time>2023-04-28T14:35:17.612Z</time>
      </trkpt>
      <trkpt lat="42.60887" lon="2.15045">
        <ele>1870.1</ele>
        <time>2023-04-28T14:35:27.880Z</time>
      </trkpt>
      <trkpt lat="42.6088" lon="2.15029">
        <ele>1870.1</ele>
        <time>2023-04-28T14:35:38.331Z</time>
      </trkpt>
      <trkpt lat="42.60873" lon="2.15015">
        <ele>1868.1</ele>
        <time>2023-04-28T14:35:48.851Z</time>
      </trkpt>
      <trkpt lat="42.60872" lon="2.14997">
        <ele>1867.1</ele>
        <time>2023-04-28T14:35:59.351Z</time>
      </trkpt>
      <trkpt lat="42.60868" lon="2.14981">
        <ele>1869.09</ele>
        <time>2023-04-28T14:36:09.720Z</time>
      </trkpt>
      <trkpt lat="42.60865" lon="2.14966">
        <ele>1868.1</ele>
        <time>2023-04-28T14:36:19.762Z</time>
      </trkpt>
      <trkpt lat="42.6086" lon="2.14952">
        <ele>1867.09</ele>
        <time>2023-04-28T14:36:30.711Z</time>
      </trkpt>
      <trkpt lat="42.60856" lon="2.1494">
        <ele>1866.34</ele>
        <time>2023-04-28T14:36:41.201Z</time>
      </trkpt>
      <trkpt lat="42.60854" lon="2.14926">
        <ele>1864.09</ele>
        <time>2023-04-28T14:36:51.491Z</time>
      </trkpt>
      <trkpt lat="42.60849" lon="2.14911">
        <ele>1863.09</ele>
        <time>2023-04-28T14:37:01.901Z</time>
      </trkpt>
      <trkpt lat="42.60845" lon="2.14896">
        <ele>1862.09</ele>
        <time>2023-04-28T14:37:12.261Z</time>
      </trkpt>
      <trkpt lat="42.60843" lon="2.14883">
        <ele>1860.1</ele>
        <time>2023-04-28T14:37:22.552Z</time>
      </trkpt>
      <trkpt lat="42.60841" lon="2.14869">
        <ele>1860.09</ele>
        <time>2023-04-28T14:37:32.951Z</time>
      </trkpt>
      <trkpt lat="42.60837" lon="2.14857">
        <ele>1858.09</ele>
        <time>2023-04-28T14:37:43.361Z</time>
      </trkpt>
      <trkpt lat="42.60835" lon="2.14844">
        <ele>1856.15</ele>
        <time>2023-04-28T14:37:53.761Z</time>
      </trkpt>
      <trkpt lat="42.6083" lon="2.1483">
        <ele>1854.09</ele>
        <time>2023-04-28T14:38:04.241Z</time>
      </trkpt>
      <trkpt lat="42.60828" lon="2.14817">
        <ele>1852.09</ele>
        <time>2023-04-28T14:38:14.731Z</time>
      </trkpt>
      <trkpt lat="42.60823" lon="2.14806">
        <ele>1849.09</ele>
        <time>2023-04-28T14:38:25.621Z</time>
      </trkpt>
      <trkpt lat="42.60822" lon="2.14806">
        <ele>1848.09</ele>
        <time>2023-04-28T14:38:41.731Z</time>
      </trkpt>
      <trkpt lat="42.60821" lon="2.1479">
        <ele>1847.09</ele>
        <time>2023-04-28T14:38:52.234Z</time>
      </trkpt>
      <trkpt lat="42.60822" lon="2.14776">
        <ele>1846.34</ele>
        <time>2023-04-28T14:39:02.271Z</time>
      </trkpt>
      <trkpt lat="42.60823" lon="2.14762">
        <ele>1845.09</ele>
        <time>2023-04-28T14:39:12.731Z</time>
      </trkpt>
      <trkpt lat="42.60821" lon="2.14755">
        <ele>1846.09</ele>
        <time>2023-04-28T14:39:23.041Z</time>
      </trkpt>
      <trkpt lat="42.60817" lon="2.14742">
        <ele>1846.09</ele>
        <time>2023-04-28T14:39:33.430Z</time>
      </trkpt>
      <trkpt lat="42.60816" lon="2.14727">
        <ele>1844.09</ele>
        <time>2023-04-28T14:39:43.761Z</time>
      </trkpt>
      <trkpt lat="42.60815" lon="2.14713">
        <ele>1842.15</ele>
        <time>2023-04-28T14:39:54.231Z</time>
      </trkpt>
      <trkpt lat="42.60813" lon="2.14701">
        <ele>1841.03</ele>
        <time>2023-04-28T14:40:04.551Z</time>
      </trkpt>
      <trkpt lat="42.6081" lon="2.14689">
        <ele>1839.09</ele>
        <time>2023-04-28T14:40:14.580Z</time>
      </trkpt>
      <trkpt lat="42.60805" lon="2.14674">
        <ele>1837.09</ele>
        <time>2023-04-28T14:40:25.051Z</time>
      </trkpt>
      <trkpt lat="42.60801" lon="2.1466">
        <ele>1836.09</ele>
        <time>2023-04-28T14:40:35.451Z</time>
      </trkpt>
      <trkpt lat="42.60795" lon="2.14648">
        <ele>1834.09</ele>
        <time>2023-04-28T14:40:45.461Z</time>
      </trkpt>
      <trkpt lat="42.60792" lon="2.14636">
        <ele>1832.09</ele>
        <time>2023-04-28T14:40:55.946Z</time>
      </trkpt>
      <trkpt lat="42.60785" lon="2.14623">
        <ele>1831.09</ele>
        <time>2023-04-28T14:41:06.471Z</time>
      </trkpt>
      <trkpt lat="42.6078" lon="2.14609">
        <ele>1829.34</ele>
        <time>2023-04-28T14:41:17.010Z</time>
      </trkpt>
      <trkpt lat="42.60779" lon="2.14598">
        <ele>1829.09</ele>
        <time>2023-04-28T14:41:27.291Z</time>
      </trkpt>
      <trkpt lat="42.60771" lon="2.14585">
        <ele>1828.15</ele>
        <time>2023-04-28T14:41:37.631Z</time>
      </trkpt>
      <trkpt lat="42.60766" lon="2.14571">
        <ele>1829.09</ele>
        <time>2023-04-28T14:41:47.980Z</time>
      </trkpt>
      <trkpt lat="42.60758" lon="2.1456">
        <ele>1827.15</ele>
        <time>2023-04-28T14:41:58.521Z</time>
      </trkpt>
      <trkpt lat="42.60754" lon="2.14546">
        <ele>1826.08</ele>
        <time>2023-04-28T14:42:08.901Z</time>
      </trkpt>
      <trkpt lat="42.60747" lon="2.14532">
        <ele>1824.08</ele>
        <time>2023-04-28T14:42:19.421Z</time>
      </trkpt>
      <trkpt lat="42.60742" lon="2.14518">
        <ele>1822.09</ele>
        <time>2023-04-28T14:42:29.641Z</time>
      </trkpt>
      <trkpt lat="42.60736" lon="2.14504">
        <ele>1822.08</ele>
        <time>2023-04-28T14:42:39.641Z</time>
      </trkpt>
      <trkpt lat="42.60732" lon="2.14497">
        <ele>1821.08</ele>
        <time>2023-04-28T14:42:49.651Z</time>
      </trkpt>
      <trkpt lat="42.6073" lon="2.14496">
        <ele>1820.08</ele>
        <time>2023-04-28T14:43:00.021Z</time>
      </trkpt>
      <trkpt lat="42.60723" lon="2.14482">
        <ele>1817.1</ele>
        <time>2023-04-28T14:43:10.461Z</time>
      </trkpt>
      <trkpt lat="42.60717" lon="2.14476">
        <ele>1818.83</ele>
        <time>2023-04-28T14:43:20.555Z</time>
      </trkpt>
      <trkpt lat="42.60708" lon="2.14462">
        <ele>1818.83</ele>
        <time>2023-04-28T14:43:30.971Z</time>
      </trkpt>
      <trkpt lat="42.60706" lon="2.14446">
        <ele>1819.08</ele>
        <time>2023-04-28T14:43:41.541Z</time>
      </trkpt>
      <trkpt lat="42.60704" lon="2.1443">
        <ele>1819.02</ele>
        <time>2023-04-28T14:43:51.981Z</time>
      </trkpt>
      <trkpt lat="42.60702" lon="2.14413">
        <ele>1818.08</ele>
        <time>2023-04-28T14:44:01.991Z</time>
      </trkpt>
      <trkpt lat="42.60701" lon="2.14396">
        <ele>1816.08</ele>
        <time>2023-04-28T14:44:12.441Z</time>
      </trkpt>
      <trkpt lat="42.60697" lon="2.14382">
        <ele>1813.33</ele>
        <time>2023-04-28T14:44:22.821Z</time>
      </trkpt>
      <trkpt lat="42.60692" lon="2.14368">
        <ele>1811.08</ele>
        <time>2023-04-28T14:44:33.161Z</time>
      </trkpt>
      <trkpt lat="42.60688" lon="2.14354">
        <ele>1809.08</ele>
        <time>2023-04-28T14:44:43.601Z</time>
      </trkpt>
      <trkpt lat="42.60685" lon="2.14339">
        <ele>1808.33</ele>
        <time>2023-04-28T14:44:54.121Z</time>
      </trkpt>
      <trkpt lat="42.6068" lon="2.14323">
        <ele>1807.08</ele>
        <time>2023-04-28T14:45:04.661Z</time>
      </trkpt>
      <trkpt lat="42.60678" lon="2.14306">
        <ele>1808.08</ele>
        <time>2023-04-28T14:45:15.121Z</time>
      </trkpt>
      <trkpt lat="42.60678" lon="2.1429">
        <ele>1807.08</ele>
        <time>2023-04-28T14:45:25.601Z</time>
      </trkpt>
      <trkpt lat="42.60676" lon="2.14276">
        <ele>1805.89</ele>
        <time>2023-04-28T14:45:35.911Z</time>
      </trkpt>
      <trkpt lat="42.60675" lon="2.14262">
        <ele>1804.16</ele>
        <time>2023-04-28T14:45:46.280Z</time>
      </trkpt>
      <trkpt lat="42.60668" lon="2.14249">
        <ele>1802.09</ele>
        <time>2023-04-28T14:45:56.947Z</time>
      </trkpt>
      <trkpt lat="42.60663" lon="2.14237">
        <ele>1799.33</ele>
        <time>2023-04-28T14:46:06.953Z</time>
      </trkpt>
      <trkpt lat="42.60656" lon="2.14225">
        <ele>1798.09</ele>
        <time>2023-04-28T14:46:16.962Z</time>
      </trkpt>
      <trkpt lat="42.60649" lon="2.14216">
        <ele>1798.32</ele>
        <time>2023-04-28T14:46:26.965Z</time>
      </trkpt>
      <trkpt lat="42.60639" lon="2.14209">
        <ele>1797.08</ele>
        <time>2023-04-28T14:46:37.954Z</time>
      </trkpt>
      <trkpt lat="42.6063" lon="2.142">
        <ele>1797.07</ele>
        <time>2023-04-28T14:46:47.962Z</time>
      </trkpt>
      <trkpt lat="42.60621" lon="2.1419">
        <ele>1796.07</ele>
        <time>2023-04-28T14:46:58.961Z</time>
      </trkpt>
      <trkpt lat="42.60613" lon="2.14176">
        <ele>1794.32</ele>
        <time>2023-04-28T14:47:09.964Z</time>
      </trkpt>
      <trkpt lat="42.60607" lon="2.14161">
        <ele>1793.82</ele>
        <time>2023-04-28T14:47:20.939Z</time>
      </trkpt>
      <trkpt lat="42.60604" lon="2.14145">
        <ele>1794.01</ele>
        <time>2023-04-28T14:47:30.964Z</time>
      </trkpt>
      <trkpt lat="42.60606" lon="2.14127">
        <ele>1792.32</ele>
        <time>2023-04-28T14:47:41.958Z</time>
      </trkpt>
      <trkpt lat="42.60612" lon="2.14111">
        <ele>1793.07</ele>
        <time>2023-04-28T14:47:51.961Z</time>
      </trkpt>
      <trkpt lat="42.60618" lon="2.14098">
        <ele>1792.07</ele>
        <time>2023-04-28T14:48:02.946Z</time>
      </trkpt>
      <trkpt lat="42.60621" lon="2.14085">
        <ele>1791.32</ele>
        <time>2023-04-28T14:48:12.966Z</time>
      </trkpt>
      <trkpt lat="42.60617" lon="2.14073">
        <ele>1788.32</ele>
        <time>2023-04-28T14:48:23.949Z</time>
      </trkpt>
      <trkpt lat="42.60614" lon="2.1406">
        <ele>1786.09</ele>
        <time>2023-04-28T14:48:33.950Z</time>
      </trkpt>
      <trkpt lat="42.6061" lon="2.14046">
        <ele>1783.13</ele>
        <time>2023-04-28T14:48:43.954Z</time>
      </trkpt>
      <trkpt lat="42.60605" lon="2.14033">
        <ele>1781.07</ele>
        <time>2023-04-28T14:48:53.954Z</time>
      </trkpt>
      <trkpt lat="42.60598" lon="2.14022">
        <ele>1779.09</ele>
        <time>2023-04-28T14:49:03.954Z</time>
      </trkpt>
      <trkpt lat="42.6059" lon="2.1401">
        <ele>1778.13</ele>
        <time>2023-04-28T14:49:13.959Z</time>
      </trkpt>
      <trkpt lat="42.60582" lon="2.14">
        <ele>1777.09</ele>
        <time>2023-04-28T14:49:23.969Z</time>
      </trkpt>
      <trkpt lat="42.6057" lon="2.13992">
        <ele>1775.32</ele>
        <time>2023-04-28T14:49:34.964Z</time>
      </trkpt>
      <trkpt lat="42.60558" lon="2.13988">
        <ele>1775.12</ele>
        <time>2023-04-28T14:49:44.969Z</time>
      </trkpt>
      <trkpt lat="42.60545" lon="2.13991">
        <ele>1776.07</ele>
        <time>2023-04-28T14:49:55.955Z</time>
      </trkpt>
      <trkpt lat="42.60536" lon="2.14004">
        <ele>1775.02</ele>
        <time>2023-04-28T14:50:06.964Z</time>
      </trkpt>
      <trkpt lat="42.60528" lon="2.14017">
        <ele>1777.06</ele>
        <time>2023-04-28T14:50:17.955Z</time>
      </trkpt>
      <trkpt lat="42.60521" lon="2.14031">
        <ele>1774.15</ele>
        <time>2023-04-28T14:50:27.963Z</time>
      </trkpt>
      <trkpt lat="42.60513" lon="2.14043">
        <ele>1772.32</ele>
        <time>2023-04-28T14:50:37.964Z</time>
      </trkpt>
      <trkpt lat="42.60504" lon="2.14055">
        <ele>1772.07</ele>
        <time>2023-04-28T14:50:48.952Z</time>
      </trkpt>
      <trkpt lat="42.60497" lon="2.14069">
        <ele>1771.07</ele>
        <time>2023-04-28T14:50:58.957Z</time>
      </trkpt>
      <trkpt lat="42.60492" lon="2.14082">
        <ele>1769.09</ele>
        <time>2023-04-28T14:51:08.959Z</time>
      </trkpt>
      <trkpt lat="42.60487" lon="2.14093">
        <ele>1766.07</ele>
        <time>2023-04-28T14:51:18.967Z</time>
      </trkpt>
      <trkpt lat="42.60481" lon="2.14108">
        <ele>1765.07</ele>
        <time>2023-04-28T14:51:29.959Z</time>
      </trkpt>
      <trkpt lat="42.60475" lon="2.14123">
        <ele>1764.15</ele>
        <time>2023-04-28T14:51:40.954Z</time>
      </trkpt>
      <trkpt lat="42.60467" lon="2.14136">
        <ele>1764.07</ele>
        <time>2023-04-28T14:51:50.958Z</time>
      </trkpt>
      <trkpt lat="42.60461" lon="2.14147">
        <ele>1762.32</ele>
        <time>2023-04-28T14:52:00.958Z</time>
      </trkpt>
      <trkpt lat="42.60455" lon="2.14162">
        <ele>1761.07</ele>
        <time>2023-04-28T14:52:11.310Z</time>
      </trkpt>
      <trkpt lat="42.60449" lon="2.14177">
        <ele>1760.32</ele>
        <time>2023-04-28T14:52:21.370Z</time>
      </trkpt>
      <trkpt lat="42.60447" lon="2.14193">
        <ele>1758.07</ele>
        <time>2023-04-28T14:52:31.410Z</time>
      </trkpt>
      <trkpt lat="42.60444" lon="2.14209">
        <ele>1758.06</ele>
        <time>2023-04-28T14:52:41.430Z</time>
      </trkpt>
      <trkpt lat="42.60439" lon="2.14221">
        <ele>1756.07</ele>
        <time>2023-04-28T14:52:51.950Z</time>
      </trkpt>
      <trkpt lat="42.60428" lon="2.14217">
        <ele>1753.07</ele>
        <time>2023-04-28T14:53:01.956Z</time>
      </trkpt>
      <trkpt lat="42.60425" lon="2.142">
        <ele>1751.07</ele>
        <time>2023-04-28T14:53:12.221Z</time>
      </trkpt>
      <trkpt lat="42.60426" lon="2.14183">
        <ele>1749.09</ele>
        <time>2023-04-28T14:53:22.532Z</time>
      </trkpt>
      <trkpt lat="42.60426" lon="2.14168">
        <ele>1747.09</ele>
        <time>2023-04-28T14:53:32.571Z</time>
      </trkpt>
      <trkpt lat="42.60424" lon="2.14154">
        <ele>1745.13</ele>
        <time>2023-04-28T14:53:42.992Z</time>
      </trkpt>
      <trkpt lat="42.60422" lon="2.14139">
        <ele>1742.32</ele>
        <time>2023-04-28T14:53:53.412Z</time>
      </trkpt>
      <trkpt lat="42.60418" lon="2.14124">
        <ele>1741.07</ele>
        <time>2023-04-28T14:54:03.870Z</time>
      </trkpt>
      <trkpt lat="42.60416" lon="2.14108">
        <ele>1739.07</ele>
        <time>2023-04-28T14:54:14.316Z</time>
      </trkpt>
      <trkpt lat="42.60413" lon="2.14092">
        <ele>1737.07</ele>
        <time>2023-04-28T14:54:24.841Z</time>
      </trkpt>
      <trkpt lat="42.60412" lon="2.14076">
        <ele>1737.07</ele>
        <time>2023-04-28T14:54:35.242Z</time>
      </trkpt>
      <trkpt lat="42.60409" lon="2.14061">
        <ele>1736.05</ele>
        <time>2023-04-28T14:54:45.532Z</time>
      </trkpt>
      <trkpt lat="42.60402" lon="2.14047">
        <ele>1736.07</ele>
        <time>2023-04-28T14:54:55.557Z</time>
      </trkpt>
      <trkpt lat="42.60396" lon="2.14031">
        <ele>1734.07</ele>
        <time>2023-04-28T14:55:06.060Z</time>
      </trkpt>
      <trkpt lat="42.60393" lon="2.14015">
        <ele>1733.07</ele>
        <time>2023-04-28T14:55:16.436Z</time>
      </trkpt>
      <trkpt lat="42.60388" lon="2.13999">
        <ele>1731.08</ele>
        <time>2023-04-28T14:55:26.960Z</time>
      </trkpt>
      <trkpt lat="42.60385" lon="2.13983">
        <ele>1729.32</ele>
        <time>2023-04-28T14:55:37.460Z</time>
      </trkpt>
      <trkpt lat="42.60379" lon="2.13969">
        <ele>1727.08</ele>
        <time>2023-04-28T14:55:47.541Z</time>
      </trkpt>
      <trkpt lat="42.60375" lon="2.13954">
        <ele>1725.31</ele>
        <time>2023-04-28T14:55:58.021Z</time>
      </trkpt>
      <trkpt lat="42.6037" lon="2.13939">
        <ele>1724.06</ele>
        <time>2023-04-28T14:56:08.472Z</time>
      </trkpt>
      <trkpt lat="42.60365" lon="2.13925">
        <ele>1724.06</ele>
        <time>2023-04-28T14:56:18.511Z</time>
      </trkpt>
      <trkpt lat="42.6036" lon="2.13911">
        <ele>1722.06</ele>
        <time>2023-04-28T14:56:28.551Z</time>
      </trkpt>
      <trkpt lat="42.60357" lon="2.13896">
        <ele>1721.06</ele>
        <time>2023-04-28T14:56:39.071Z</time>
      </trkpt>
      <trkpt lat="42.60354" lon="2.1388">
        <ele>1721.06</ele>
        <time>2023-04-28T14:56:49.599Z</time>
      </trkpt>
      <trkpt lat="42.6035" lon="2.13869">
        <ele>1720.06</ele>
        <time>2023-04-28T14:57:00.059Z</time>
      </trkpt>
      <trkpt lat="42.60342" lon="2.13859">
        <ele>1720.06</ele>
        <time>2023-04-28T14:57:10.472Z</time>
      </trkpt>
      <trkpt lat="42.60333" lon="2.13846">
        <ele>1718.06</ele>
        <time>2023-04-28T14:57:20.959Z</time>
      </trkpt>
      <trkpt lat="42.60323" lon="2.13836">
        <ele>1716.06</ele>
        <time>2023-04-28T14:57:31.010Z</time>
      </trkpt>
      <trkpt lat="42.60312" lon="2.13827">
        <ele>1715.06</ele>
        <time>2023-04-28T14:57:41.010Z</time>
      </trkpt>
      <trkpt lat="42.60299" lon="2.13825">
        <ele>1711.06</ele>
        <time>2023-04-28T14:57:51.570Z</time>
      </trkpt>
      <trkpt lat="42.60288" lon="2.13818">
        <ele>1712.31</ele>
        <time>2023-04-28T14:58:01.961Z</time>
      </trkpt>
      <trkpt lat="42.60278" lon="2.13809">
        <ele>1709.13</ele>
        <time>2023-04-28T14:58:12.570Z</time>
      </trkpt>
      <trkpt lat="42.60276" lon="2.13813">
        <ele>1708.31</ele>
        <time>2023-04-28T14:58:22.620Z</time>
      </trkpt>
      <trkpt lat="42.60277" lon="2.13812">
        <ele>1706.06</ele>
        <time>2023-04-28T14:58:33.723Z</time>
      </trkpt>
      <trkpt lat="42.60276" lon="2.1381">
        <ele>1706.06</ele>
        <time>2023-04-28T14:59:42.811Z</time>
      </trkpt>
      <trkpt lat="42.60266" lon="2.138">
        <ele>1705.81</ele>
        <time>2023-04-28T14:59:52.840Z</time>
      </trkpt>
      <trkpt lat="42.60256" lon="2.13803">
        <ele>1706.06</ele>
        <time>2023-04-28T15:00:02.883Z</time>
      </trkpt>
      <trkpt lat="42.60258" lon="2.13804">
        <ele>1706.06</ele>
        <time>2023-04-28T15:00:13.945Z</time>
      </trkpt>
      <trkpt lat="42.60258" lon="2.13805">
        <ele>1705.31</ele>
        <time>2023-04-28T15:00:25.930Z</time>
      </trkpt>
      <trkpt lat="42.60257" lon="2.13805">
        <ele>1705.06</ele>
        <time>2023-04-28T15:00:38.711Z</time>
      </trkpt>
    </trkseg>
  </trk>
</gpx>